ETD171H OMAA-KLAX
Flight info
| Callsign | ETD171H |
|---|---|
| Flight time | N/A |
| Altitude | 32000 |
| Route | BOSEV N563 ALPOB L768 AAR V45 TRF R652 OBROD Q163 GENEX L53 SUVAS N128 TEZAK/N0489F340 N128 OTHON UN128 RDS UL609 MES UG18 FSK UN128 RUGAS DCT RAXAD DCT VAGEN DCT OBUTI DCT EPOLA DCT LIMRA/N0474F360 DCT LAMSI DCT ARMUT DCT KATCE DCT SUTEB DCT VALBO DCT AVRAL DCT BALIX/M084F360 DCT 61N020W 62N030W/M083F380 62N040W 61N050W DCT SAVRY/N0478F380 DCT LAKES DCT MCKEE DCT SOCAN DCT PEMLU/N0487F400 DCT YSP DCT DLH DCT SNY DCT DBL DCT CHESZ Q88 HAKMN ANJLL4 |
| Aircraft | A346/H-SDE2E3FGHIJ3J4J5M1RWXY/LB1D1 |
Departure
| Time | 2026-05-04 12:06 |
|---|---|
| Airport | Zayed International Airport (OMAA) |
Arrival
| Time | N/A |
|---|---|
| Airport | Los Angeles International Airport (KLAX) |
| Time | Latitude | Longitude | Altitude | Speed | Heading |
|---|---|---|---|---|---|
| 2026-05-04 11:27 | 24.44566 | 54.64605 | 84 ft | 0 kts | 240° |
| 2026-05-04 11:42 | 24.44566 | 54.64606 | 112 ft | 1 kts | 240° |
| 2026-05-04 11:42 | 24.44578 | 54.64629 | 87 ft | 4 kts | 240° |
| 2026-05-04 11:42 | 24.44580 | 54.64633 | 87 ft | 0 kts | 240° |
| 2026-05-04 11:43 | 24.44581 | 54.64635 | 87 ft | 2 kts | 240° |
| 2026-05-04 11:43 | 24.44585 | 54.64641 | 86 ft | 0 kts | 248° |
| 2026-05-04 11:43 | 24.44584 | 54.64641 | 86 ft | 0 kts | 248° |
| 2026-05-04 11:44 | 24.44586 | 54.64644 | 87 ft | 0 kts | 248° |
| 2026-05-04 11:45 | 24.44594 | 54.64668 | 88 ft | 0 kts | 248° |
| 2026-05-04 11:45 | 24.44601 | 54.64685 | 87 ft | 0 kts | 248° |
| 2026-05-04 11:46 | 24.44600 | 54.64685 | 87 ft | 0 kts | 248° |
| 2026-05-04 11:46 | 24.44600 | 54.64684 | 87 ft | 0 kts | 248° |
| 2026-05-04 11:47 | 24.44600 | 54.64683 | 87 ft | 0 kts | 245° |
| 2026-05-04 11:47 | 24.44599 | 54.64682 | 87 ft | 0 kts | 245° |
| 2026-05-04 11:48 | 24.44599 | 54.64681 | 87 ft | 1 kts | 245° |
| 2026-05-04 11:48 | 24.44595 | 54.64671 | 88 ft | 2 kts | 244° |
| 2026-05-04 11:48 | 24.44591 | 54.64667 | 88 ft | 1 kts | 221° |
| 2026-05-04 11:48 | 24.44578 | 54.64662 | 87 ft | 2 kts | 182° |
| 2026-05-04 11:49 | 24.44556 | 54.64664 | 87 ft | 4 kts | 174° |
| 2026-05-04 11:49 | 24.44522 | 54.64668 | 88 ft | 6 kts | 174° |
| 2026-05-04 11:49 | 24.44481 | 54.64663 | 87 ft | 6 kts | 196° |
| 2026-05-04 11:49 | 24.44439 | 54.64640 | 88 ft | 7 kts | 218° |
| 2026-05-04 11:50 | 24.44401 | 54.64602 | 87 ft | 8 kts | 223° |
| 2026-05-04 11:50 | 24.44359 | 54.64563 | 88 ft | 8 kts | 217° |
| 2026-05-04 11:50 | 24.44310 | 54.64524 | 87 ft | 9 kts | 216° |
| 2026-05-04 11:50 | 24.44267 | 54.64475 | 85 ft | 9 kts | 242° |
| 2026-05-04 11:51 | 24.44237 | 54.64408 | 88 ft | 10 kts | 238° |
| 2026-05-04 11:51 | 24.44189 | 54.64374 | 89 ft | 7 kts | 174° |
| 2026-05-04 11:51 | 24.44155 | 54.64394 | 88 ft | 4 kts | 137° |
| 2026-05-04 11:51 | 24.44130 | 54.64427 | 89 ft | 8 kts | 129° |
| 2026-05-04 11:52 | 24.44100 | 54.64467 | 89 ft | 5 kts | 128° |
| 2026-05-04 11:52 | 24.44084 | 54.64490 | 87 ft | 3 kts | 128° |
| 2026-05-04 11:52 | 24.44077 | 54.64499 | 87 ft | 0 kts | 128° |
| 2026-05-04 11:55 | 24.44077 | 54.64500 | 84 ft | 0 kts | 128° |
| 2026-05-04 11:56 | 24.44076 | 54.64500 | 84 ft | 0 kts | 128° |
| 2026-05-04 11:57 | 24.44058 | 54.64526 | 87 ft | 11 kts | 128° |
| 2026-05-04 11:58 | 24.44009 | 54.64596 | 89 ft | 11 kts | 128° |
| 2026-05-04 11:58 | 24.43960 | 54.64665 | 87 ft | 11 kts | 128° |
| 2026-05-04 11:58 | 24.43912 | 54.64733 | 88 ft | 11 kts | 128° |
| 2026-05-04 11:58 | 24.43864 | 54.64800 | 89 ft | 11 kts | 128° |
| 2026-05-04 11:59 | 24.43817 | 54.64867 | 88 ft | 14 kts | 128° |
| 2026-05-04 11:59 | 24.43678 | 54.65064 | 87 ft | 24 kts | 128° |
| 2026-05-04 11:59 | 24.43575 | 54.65207 | 87 ft | 24 kts | 128° |
| 2026-05-04 11:59 | 24.43474 | 54.65347 | 87 ft | 23 kts | 128° |
| 2026-05-04 12:00 | 24.43373 | 54.65488 | 88 ft | 23 kts | 128° |
| 2026-05-04 12:00 | 24.43274 | 54.65629 | 89 ft | 23 kts | 127° |
| 2026-05-04 12:00 | 24.43176 | 54.65770 | 88 ft | 23 kts | 127° |
| 2026-05-04 12:00 | 24.43078 | 54.65911 | 88 ft | 23 kts | 128° |
| 2026-05-04 12:01 | 24.42978 | 54.66049 | 88 ft | 23 kts | 129° |
| 2026-05-04 12:01 | 24.42879 | 54.66186 | 87 ft | 23 kts | 128° |
| 2026-05-04 12:02 | 24.42375 | 54.66854 | 87 ft | 7 kts | 189° |
| 2026-05-04 12:03 | 24.42329 | 54.66833 | 87 ft | 8 kts | 210° |
| 2026-05-04 12:03 | 24.42288 | 54.66800 | 88 ft | 7 kts | 221° |
| 2026-05-04 12:03 | 24.42249 | 54.66766 | 86 ft | 7 kts | 214° |
| 2026-05-04 12:03 | 24.42204 | 54.66733 | 87 ft | 8 kts | 214° |
| 2026-05-04 12:04 | 24.42188 | 54.66709 | 87 ft | 2 kts | 269° |
| 2026-05-04 12:04 | 24.42188 | 54.66703 | 86 ft | 0 kts | 277° |
| 2026-05-04 12:04 | 24.42194 | 54.66687 | 88 ft | 2 kts | 301° |
| 2026-05-04 12:04 | 24.42196 | 54.66684 | 87 ft | 0 kts | 306° |
| 2026-05-04 12:05 | 24.42233 | 54.66628 | 87 ft | 27 kts | 307° |
| 2026-05-04 12:05 | 24.42442 | 54.66333 | 88 ft | 69 kts | 308° |
| 2026-05-04 12:05 | 24.42820 | 54.65799 | 87 ft | 107 kts | 308° |
| 2026-05-04 12:05 | 24.43348 | 54.65055 | 91 ft | 139 kts | 308° |
| 2026-05-04 12:06 | 24.44015 | 54.64114 | 90 ft | 175 kts | 308° |
| 2026-05-04 12:06 | 24.44817 | 54.62993 | 353 ft | 190 kts | 307° |
| 2026-05-04 12:06 | 24.45595 | 54.61859 | 959 ft | 181 kts | 306° |
| 2026-05-04 12:06 | 24.46348 | 54.60756 | 1277 ft | 182 kts | 307° |
| 2026-05-04 12:07 | 24.47133 | 54.59640 | 1528 ft | 187 kts | 309° |
| 2026-05-04 12:07 | 24.47951 | 54.58521 | 1858 ft | 190 kts | 309° |
| 2026-05-04 12:07 | 24.48809 | 54.57382 | 2092 ft | 197 kts | 309° |
| 2026-05-04 12:07 | 24.49672 | 54.56171 | 2292 ft | 207 kts | 308° |
| 2026-05-04 12:08 | 24.50577 | 54.54888 | 2485 ft | 218 kts | 308° |
| 2026-05-04 12:08 | 24.51527 | 54.53536 | 2644 ft | 229 kts | 308° |
| 2026-05-04 12:08 | 24.52518 | 54.52127 | 2870 ft | 239 kts | 308° |
| 2026-05-04 12:08 | 24.53561 | 54.50650 | 3053 ft | 250 kts | 308° |
| 2026-05-04 12:09 | 24.54647 | 54.49113 | 3308 ft | 259 kts | 309° |
| 2026-05-04 12:09 | 24.55779 | 54.47514 | 3486 ft | 271 kts | 308° |
| 2026-05-04 12:09 | 24.56957 | 54.45849 | 3652 ft | 279 kts | 308° |
| 2026-05-04 12:09 | 24.58133 | 54.44180 | 4174 ft | 278 kts | 309° |
| 2026-05-04 12:10 | 24.59312 | 54.42507 | 4684 ft | 277 kts | 309° |
| 2026-05-04 12:10 | 24.60497 | 54.40832 | 5114 ft | 278 kts | 309° |
| 2026-05-04 12:10 | 24.61680 | 54.39158 | 5650 ft | 277 kts | 310° |
| 2026-05-04 12:10 | 24.62853 | 54.37506 | 6172 ft | 275 kts | 309° |
| 2026-05-04 12:11 | 24.64015 | 54.35869 | 6618 ft | 275 kts | 309° |
| 2026-05-04 12:11 | 24.65194 | 54.34207 | 7034 ft | 276 kts | 309° |
| 2026-05-04 12:11 | 24.66386 | 54.32526 | 7440 ft | 278 kts | 309° |
| 2026-05-04 12:11 | 24.67579 | 54.30844 | 7870 ft | 279 kts | 309° |
| 2026-05-04 12:12 | 24.68778 | 54.29152 | 8265 ft | 282 kts | 309° |
| 2026-05-04 12:12 | 24.69987 | 54.27445 | 8661 ft | 283 kts | 308° |
| 2026-05-04 12:12 | 24.71204 | 54.25726 | 9079 ft | 285 kts | 308° |
| 2026-05-04 12:12 | 24.72421 | 54.24004 | 9488 ft | 287 kts | 308° |
| 2026-05-04 12:13 | 24.73652 | 54.22263 | 9898 ft | 288 kts | 308° |
| 2026-05-04 12:14 | 24.83105 | 54.08840 | 11239 ft | 350 kts | 307° |
| 2026-05-04 12:15 | 24.84496 | 54.06596 | 11412 ft | 360 kts | 303° |
| 2026-05-04 12:15 | 24.85837 | 54.04228 | 11606 ft | 368 kts | 302° |
| 2026-05-04 12:15 | 24.87215 | 54.01860 | 11920 ft | 372 kts | 307° |
| 2026-05-04 12:15 | 24.88886 | 53.99698 | 12323 ft | 373 kts | 313° |
| 2026-05-04 12:16 | 24.90654 | 53.97612 | 12722 ft | 375 kts | 313° |
| 2026-05-04 12:16 | 24.92443 | 53.95500 | 13091 ft | 378 kts | 313° |
| 2026-05-04 12:16 | 24.94230 | 53.93356 | 13487 ft | 381 kts | 313° |
| 2026-05-04 12:16 | 24.96016 | 53.91186 | 13847 ft | 384 kts | 312° |
| 2026-05-04 12:17 | 24.97813 | 53.88991 | 14192 ft | 386 kts | 312° |
| 2026-05-04 12:17 | 24.99566 | 53.86837 | 14539 ft | 388 kts | 312° |
| 2026-05-04 12:17 | 25.01346 | 53.84645 | 14880 ft | 391 kts | 311° |
| 2026-05-04 12:17 | 25.03157 | 53.82411 | 15231 ft | 393 kts | 311° |
| 2026-05-04 12:18 | 25.04963 | 53.80180 | 15573 ft | 396 kts | 311° |
| 2026-05-04 12:18 | 25.06813 | 53.77926 | 15927 ft | 398 kts | 312° |
| 2026-05-04 12:18 | 25.08702 | 53.75673 | 16283 ft | 401 kts | 312° |
| 2026-05-04 12:18 | 25.10606 | 53.73413 | 16634 ft | 403 kts | 312° |
| 2026-05-04 12:19 | 25.12523 | 53.71136 | 16977 ft | 405 kts | 312° |
| 2026-05-04 12:19 | 25.14447 | 53.68844 | 17315 ft | 408 kts | 312° |
| 2026-05-04 12:19 | 25.16384 | 53.66533 | 17645 ft | 411 kts | 312° |
| 2026-05-04 12:19 | 25.18328 | 53.64211 | 17991 ft | 413 kts | 312° |
| 2026-05-04 12:20 | 25.20288 | 53.61870 | 18291 ft | 416 kts | 311° |
| 2026-05-04 12:20 | 25.22257 | 53.59517 | 18593 ft | 417 kts | 311° |
| 2026-05-04 12:20 | 25.24232 | 53.57155 | 18909 ft | 419 kts | 311° |
| 2026-05-04 12:20 | 25.26215 | 53.54781 | 19215 ft | 421 kts | 311° |
| 2026-05-04 12:21 | 25.28203 | 53.52402 | 19544 ft | 422 kts | 311° |
| 2026-05-04 12:21 | 25.30195 | 53.50015 | 19876 ft | 424 kts | 311° |
| 2026-05-04 12:21 | 25.32198 | 53.47612 | 20176 ft | 425 kts | 311° |
| 2026-05-04 12:21 | 25.34209 | 53.45200 | 20474 ft | 427 kts | 311° |
| 2026-05-04 12:22 | 25.36226 | 53.42780 | 20774 ft | 429 kts | 311° |
| 2026-05-04 12:22 | 25.38254 | 53.40345 | 21070 ft | 431 kts | 311° |
| 2026-05-04 12:22 | 25.40293 | 53.37895 | 21369 ft | 433 kts | 311° |
| 2026-05-04 12:22 | 25.42350 | 53.35422 | 21664 ft | 435 kts | 310° |
| 2026-05-04 12:23 | 25.44402 | 53.32953 | 21955 ft | 437 kts | 310° |
| 2026-05-04 12:23 | 25.46468 | 53.30468 | 22263 ft | 439 kts | 310° |
| 2026-05-04 12:23 | 25.48541 | 53.27973 | 22582 ft | 440 kts | 310° |
| 2026-05-04 12:23 | 25.50613 | 53.25476 | 22858 ft | 442 kts | 310° |
| 2026-05-04 12:24 | 25.52696 | 53.22969 | 23132 ft | 444 kts | 310° |
| 2026-05-04 12:24 | 25.54795 | 53.20446 | 23391 ft | 446 kts | 310° |
| 2026-05-04 12:24 | 25.56902 | 53.17913 | 23622 ft | 447 kts | 310° |
| 2026-05-04 12:24 | 25.59015 | 53.15372 | 23876 ft | 448 kts | 310° |
| 2026-05-04 12:25 | 25.61131 | 53.12827 | 24134 ft | 449 kts | 310° |
| 2026-05-04 12:25 | 25.63254 | 53.10271 | 24387 ft | 450 kts | 310° |
| 2026-05-04 12:25 | 25.65374 | 53.07717 | 24643 ft | 451 kts | 310° |
| 2026-05-04 12:25 | 25.67484 | 53.05153 | 24925 ft | 451 kts | 308° |
| 2026-05-04 12:26 | 25.69459 | 53.02451 | 25158 ft | 450 kts | 304° |
| 2026-05-04 12:26 | 25.71239 | 52.99600 | 25400 ft | 450 kts | 300° |
| 2026-05-04 12:26 | 25.72824 | 52.96603 | 25629 ft | 450 kts | 296° |
| 2026-05-04 12:26 | 25.74292 | 52.93541 | 25871 ft | 450 kts | 295° |
| 2026-05-04 12:27 | 25.75745 | 52.90460 | 26105 ft | 451 kts | 295° |
| 2026-05-04 12:27 | 25.77201 | 52.87365 | 26336 ft | 452 kts | 295° |
| 2026-05-04 12:27 | 25.78654 | 52.84277 | 26572 ft | 453 kts | 295° |
| 2026-05-04 12:27 | 25.80110 | 52.81184 | 26780 ft | 454 kts | 295° |
| 2026-05-04 12:28 | 25.81578 | 52.78068 | 27007 ft | 455 kts | 295° |
| 2026-05-04 12:28 | 25.83041 | 52.74965 | 27215 ft | 456 kts | 295° |
| 2026-05-04 12:28 | 25.84513 | 52.71837 | 27413 ft | 457 kts | 295° |
| 2026-05-04 12:28 | 25.85985 | 52.68711 | 27682 ft | 456 kts | 295° |
| 2026-05-04 12:29 | 25.87451 | 52.65594 | 28008 ft | 454 kts | 295° |
| 2026-05-04 12:29 | 25.88906 | 52.62498 | 28343 ft | 452 kts | 295° |
| 2026-05-04 12:29 | 25.90348 | 52.59404 | 28662 ft | 451 kts | 294° |
| 2026-05-04 12:29 | 25.91729 | 52.56305 | 28938 ft | 449 kts | 294° |
| 2026-05-04 12:30 | 25.93081 | 52.53215 | 29216 ft | 448 kts | 293° |
| 2026-05-04 12:30 | 25.94431 | 52.50132 | 29483 ft | 447 kts | 293° |
| 2026-05-04 12:30 | 25.95783 | 52.47051 | 29789 ft | 445 kts | 293° |
| 2026-05-04 12:30 | 25.97117 | 52.44019 | 30024 ft | 444 kts | 293° |
| 2026-05-04 12:31 | 25.98489 | 52.40898 | 30219 ft | 443 kts | 293° |
| 2026-05-04 12:31 | 25.99845 | 52.37831 | 30362 ft | 444 kts | 293° |
| 2026-05-04 12:31 | 26.01198 | 52.34798 | 30509 ft | 445 kts | 293° |
| 2026-05-04 12:31 | 26.02594 | 52.31675 | 30658 ft | 445 kts | 293° |
| 2026-05-04 12:32 | 26.03946 | 52.28650 | 30812 ft | 446 kts | 293° |
| 2026-05-04 12:32 | 26.06726 | 52.22419 | 31095 ft | 447 kts | 293° |
| 2026-05-04 12:32 | 26.08092 | 52.19353 | 31239 ft | 448 kts | 293° |
| 2026-05-04 12:33 | 26.09460 | 52.16280 | 31403 ft | 448 kts | 293° |
| 2026-05-04 12:33 | 26.10845 | 52.13170 | 31586 ft | 447 kts | 293° |
| 2026-05-04 12:33 | 26.12219 | 52.10078 | 31732 ft | 448 kts | 293° |
| 2026-05-04 12:34 | 26.14966 | 52.03889 | 31765 ft | 448 kts | 293° |
| 2026-05-04 12:34 | 26.17693 | 51.97749 | 31772 ft | 449 kts | 293° |
| 2026-05-04 12:35 | 26.20473 | 51.91582 | 31770 ft | 449 kts | 293° |
| 2026-05-04 12:35 | 26.23211 | 51.85367 | 31769 ft | 449 kts | 293° |
| 2026-05-04 12:36 | 26.25484 | 51.80200 | 31761 ft | 447 kts | 293° |
| 2026-05-04 12:36 | 26.28241 | 51.74013 | 31775 ft | 448 kts | 293° |
| 2026-05-04 12:37 | 26.31012 | 51.67800 | 31762 ft | 448 kts | 293° |
| 2026-05-04 12:37 | 26.33787 | 51.61573 | 31781 ft | 448 kts | 293° |
| 2026-05-04 12:38 | 26.36550 | 51.55347 | 31760 ft | 448 kts | 292° |
| 2026-05-04 12:38 | 26.38941 | 51.48956 | 31771 ft | 445 kts | 287° |
| 2026-05-04 12:39 | 26.41027 | 51.42475 | 31775 ft | 444 kts | 287° |
| 2026-05-04 12:39 | 26.43101 | 51.35981 | 31775 ft | 444 kts | 287° |
| 2026-05-04 12:40 | 26.45176 | 51.29493 | 31773 ft | 444 kts | 287° |
| 2026-05-04 12:40 | 26.47251 | 51.22989 | 31776 ft | 444 kts | 287° |
| 2026-05-04 12:41 | 26.49313 | 51.16519 | 31773 ft | 444 kts | 287° |
| 2026-05-04 12:41 | 26.51381 | 51.10025 | 31778 ft | 443 kts | 286° |
| 2026-05-04 12:42 | 26.53444 | 51.03530 | 31777 ft | 443 kts | 286° |
| 2026-05-04 12:42 | 26.55501 | 50.97044 | 31777 ft | 443 kts | 286° |
| 2026-05-04 12:43 | 26.57554 | 50.90552 | 31775 ft | 443 kts | 286° |
| 2026-05-04 12:43 | 26.59559 | 50.84097 | 31776 ft | 443 kts | 286° |
| 2026-05-04 12:44 | 26.61576 | 50.77579 | 31794 ft | 443 kts | 285° |
| 2026-05-04 12:44 | 26.63578 | 50.71104 | 31780 ft | 441 kts | 285° |
| 2026-05-04 12:45 | 26.65544 | 50.64613 | 31779 ft | 441 kts | 285° |
| 2026-05-04 12:45 | 26.67463 | 50.58111 | 31779 ft | 441 kts | 285° |
| 2026-05-04 12:46 | 26.69390 | 50.51586 | 31778 ft | 441 kts | 285° |
| 2026-05-04 12:46 | 26.71193 | 50.45046 | 31777 ft | 440 kts | 283° |
| 2026-05-04 12:47 | 26.72892 | 50.38453 | 32025 ft | 442 kts | 283° |
| 2026-05-04 12:47 | 26.73739 | 50.35161 | 32355 ft | 438 kts | 283° |
| 2026-05-04 12:47 | 26.74573 | 50.31915 | 32643 ft | 436 kts | 283° |
| 2026-05-04 12:47 | 26.75409 | 50.28659 | 32865 ft | 435 kts | 283° |
| 2026-05-04 12:48 | 26.76318 | 50.25433 | 33050 ft | 435 kts | 284° |
| 2026-05-04 12:48 | 26.77269 | 50.22233 | 33234 ft | 435 kts | 285° |
| 2026-05-04 12:48 | 26.78223 | 50.19037 | 33414 ft | 434 kts | 285° |
| 2026-05-04 12:48 | 26.79179 | 50.15833 | 33587 ft | 434 kts | 284° |
| 2026-05-04 12:49 | 26.80133 | 50.12635 | 33742 ft | 433 kts | 284° |
| 2026-05-04 12:49 | 26.82039 | 50.06234 | 33784 ft | 433 kts | 284° |
| 2026-05-04 12:50 | 26.83925 | 49.99887 | 33782 ft | 432 kts | 284° |
| 2026-05-04 12:50 | 26.85815 | 49.93510 | 33780 ft | 432 kts | 284° |
| 2026-05-04 12:51 | 26.87692 | 49.87168 | 33771 ft | 432 kts | 284° |
| 2026-05-04 12:51 | 26.89590 | 49.80743 | 33777 ft | 432 kts | 284° |
| 2026-05-04 12:52 | 26.91476 | 49.74348 | 33758 ft | 432 kts | 284° |
| 2026-05-04 12:52 | 26.93348 | 49.67991 | 33763 ft | 433 kts | 284° |
| 2026-05-04 12:53 | 26.95249 | 49.61531 | 33766 ft | 432 kts | 284° |
| 2026-05-04 12:53 | 26.97114 | 49.55174 | 33770 ft | 432 kts | 284° |
| 2026-05-04 12:54 | 26.98989 | 49.48763 | 33774 ft | 432 kts | 284° |
| 2026-05-04 12:54 | 27.01088 | 49.42417 | 33764 ft | 435 kts | 288° |
| 2026-05-04 12:55 | 27.03710 | 49.36272 | 33779 ft | 439 kts | 293° |
| 2026-05-04 12:55 | 27.06439 | 49.30162 | 33765 ft | 437 kts | 290° |
| 2026-05-04 12:56 | 27.08970 | 49.23961 | 33785 ft | 437 kts | 290° |
| 2026-05-04 12:56 | 27.11533 | 49.17756 | 33784 ft | 438 kts | 290° |
| 2026-05-04 12:57 | 27.14110 | 49.11563 | 33787 ft | 438 kts | 290° |
| 2026-05-04 12:57 | 27.16695 | 49.05361 | 33781 ft | 438 kts | 290° |
| 2026-05-04 12:58 | 27.19269 | 48.99176 | 33789 ft | 438 kts | 290° |
| 2026-05-04 12:58 | 27.21837 | 48.92967 | 33785 ft | 437 kts | 290° |
| 2026-05-04 12:59 | 27.24394 | 48.86767 | 33787 ft | 437 kts | 290° |
| 2026-05-04 12:59 | 27.26949 | 48.80567 | 33793 ft | 437 kts | 290° |
| 2026-05-04 13:00 | 27.29510 | 48.74344 | 33796 ft | 437 kts | 290° |
| 2026-05-04 13:00 | 27.32063 | 48.68139 | 33807 ft | 436 kts | 289° |
| 2026-05-04 13:01 | 27.34603 | 48.61946 | 33801 ft | 437 kts | 289° |
| 2026-05-04 13:01 | 27.37148 | 48.55732 | 33800 ft | 437 kts | 289° |
| 2026-05-04 13:02 | 27.39669 | 48.49572 | 33801 ft | 437 kts | 289° |
| 2026-05-04 13:02 | 27.42232 | 48.43298 | 33826 ft | 438 kts | 289° |
| 2026-05-04 13:03 | 27.44755 | 48.37120 | 33813 ft | 436 kts | 289° |
| 2026-05-04 13:03 | 27.47285 | 48.30907 | 33807 ft | 436 kts | 289° |
| 2026-05-04 13:04 | 27.49783 | 48.24762 | 33803 ft | 436 kts | 289° |
| 2026-05-04 13:04 | 27.52307 | 48.18550 | 33816 ft | 435 kts | 289° |
| 2026-05-04 13:05 | 27.54818 | 48.12352 | 33819 ft | 433 kts | 289° |
| 2026-05-04 13:05 | 27.57322 | 48.06166 | 33816 ft | 433 kts | 289° |
| 2026-05-04 13:06 | 27.59820 | 47.99986 | 33832 ft | 433 kts | 289° |
| 2026-05-04 13:06 | 27.62307 | 47.93821 | 33810 ft | 431 kts | 289° |
| 2026-05-04 13:07 | 27.64793 | 47.87647 | 33826 ft | 431 kts | 288° |
| 2026-05-04 13:07 | 27.67289 | 47.81497 | 33816 ft | 430 kts | 289° |
| 2026-05-04 13:08 | 27.69795 | 47.75373 | 33823 ft | 428 kts | 289° |
| 2026-05-04 13:08 | 27.72286 | 47.69258 | 33824 ft | 428 kts | 289° |
| 2026-05-04 13:09 | 27.74771 | 47.63143 | 33828 ft | 428 kts | 289° |
| 2026-05-04 13:09 | 27.77251 | 47.57030 | 33854 ft | 427 kts | 288° |
| 2026-05-04 13:10 | 27.79711 | 47.50966 | 33834 ft | 424 kts | 288° |
| 2026-05-04 13:10 | 27.82162 | 47.44907 | 33831 ft | 424 kts | 288° |
| 2026-05-04 13:11 | 27.84613 | 47.38839 | 33835 ft | 424 kts | 288° |
| 2026-05-04 13:11 | 27.87058 | 47.32779 | 33834 ft | 424 kts | 288° |
| 2026-05-04 13:12 | 27.89503 | 47.26712 | 33840 ft | 423 kts | 288° |
| 2026-05-04 13:12 | 27.91941 | 47.20653 | 33842 ft | 422 kts | 288° |
| 2026-05-04 13:13 | 27.94356 | 47.14638 | 33839 ft | 423 kts | 288° |
| 2026-05-04 13:13 | 27.96786 | 47.08578 | 33844 ft | 423 kts | 288° |
| 2026-05-04 13:14 | 27.99218 | 47.02507 | 33843 ft | 423 kts | 288° |
| 2026-05-04 13:14 | 28.01633 | 46.96474 | 33857 ft | 422 kts | 288° |
| 2026-05-04 13:15 | 28.04042 | 46.90436 | 33853 ft | 422 kts | 288° |
| 2026-05-04 13:15 | 28.06461 | 46.84365 | 33847 ft | 422 kts | 288° |
| 2026-05-04 13:16 | 28.08869 | 46.78307 | 33849 ft | 422 kts | 288° |
| 2026-05-04 13:16 | 28.11281 | 46.72236 | 33860 ft | 422 kts | 288° |
| 2026-05-04 13:17 | 28.13681 | 46.66189 | 33852 ft | 421 kts | 288° |
| 2026-05-04 13:17 | 28.16082 | 46.60128 | 33850 ft | 421 kts | 287° |
| 2026-05-04 13:18 | 28.18478 | 46.54070 | 33866 ft | 420 kts | 287° |
| 2026-05-04 13:18 | 28.20868 | 46.48016 | 33859 ft | 420 kts | 287° |
| 2026-05-04 13:19 | 28.23252 | 46.41967 | 33852 ft | 420 kts | 287° |
| 2026-05-04 13:19 | 28.25630 | 46.35926 | 33846 ft | 420 kts | 287° |
| 2026-05-04 13:20 | 28.28006 | 46.29880 | 33843 ft | 419 kts | 287° |
| 2026-05-04 13:20 | 28.30378 | 46.23837 | 33841 ft | 419 kts | 287° |
| 2026-05-04 13:21 | 28.32750 | 46.17784 | 33859 ft | 419 kts | 287° |
| 2026-05-04 13:21 | 28.34711 | 46.12772 | 33845 ft | 418 kts | 287° |
| 2026-05-04 13:22 | 28.37061 | 46.06752 | 33839 ft | 418 kts | 287° |
| 2026-05-04 13:22 | 28.39417 | 46.00708 | 33842 ft | 418 kts | 287° |
| 2026-05-04 13:23 | 28.41762 | 45.94685 | 33850 ft | 419 kts | 287° |
| 2026-05-04 13:23 | 28.44114 | 45.88635 | 33869 ft | 419 kts | 287° |
| 2026-05-04 13:24 | 28.46460 | 45.82590 | 33867 ft | 419 kts | 287° |
| 2026-05-04 13:24 | 28.48807 | 45.76535 | 33869 ft | 419 kts | 287° |
| 2026-05-04 13:25 | 28.52327 | 45.67435 | 33870 ft | 419 kts | 287° |
| 2026-05-04 13:25 | 28.54673 | 45.61359 | 33862 ft | 419 kts | 287° |
| 2026-05-04 13:26 | 28.57010 | 45.55296 | 33866 ft | 419 kts | 286° |
| 2026-05-04 13:26 | 28.59338 | 45.49247 | 33867 ft | 418 kts | 286° |
| 2026-05-04 13:27 | 28.61665 | 45.43188 | 33865 ft | 418 kts | 286° |
| 2026-05-04 13:27 | 28.63985 | 45.37138 | 33882 ft | 418 kts | 286° |
| 2026-05-04 13:28 | 28.66293 | 45.31113 | 33867 ft | 417 kts | 286° |
| 2026-05-04 13:28 | 28.68608 | 45.25056 | 33864 ft | 417 kts | 286° |
| 2026-05-04 13:29 | 28.70925 | 45.18989 | 33863 ft | 417 kts | 286° |
| 2026-05-04 13:29 | 28.73234 | 45.12931 | 33896 ft | 416 kts | 286° |
| 2026-05-04 13:30 | 28.75527 | 45.06905 | 33873 ft | 414 kts | 286° |
| 2026-05-04 13:30 | 28.77810 | 45.00895 | 33870 ft | 413 kts | 286° |
| 2026-05-04 13:31 | 28.80084 | 44.94893 | 33860 ft | 412 kts | 286° |
| 2026-05-04 13:31 | 28.82357 | 44.88892 | 33860 ft | 412 kts | 286° |
| 2026-05-04 13:32 | 28.84631 | 44.82879 | 33862 ft | 412 kts | 286° |
| 2026-05-04 13:32 | 28.86897 | 44.76877 | 33859 ft | 412 kts | 286° |
| 2026-05-04 13:33 | 28.89154 | 44.70883 | 33859 ft | 412 kts | 286° |
| 2026-05-04 13:33 | 28.91414 | 44.64869 | 33860 ft | 412 kts | 286° |
| 2026-05-04 13:34 | 28.93674 | 44.58852 | 33872 ft | 412 kts | 286° |
| 2026-05-04 13:34 | 28.95930 | 44.52835 | 33862 ft | 412 kts | 286° |
| 2026-05-04 13:35 | 28.99307 | 44.43812 | 33863 ft | 412 kts | 286° |
| 2026-05-04 13:36 | 29.01555 | 44.37793 | 33874 ft | 413 kts | 285° |
| 2026-05-04 13:36 | 29.03808 | 44.31751 | 33868 ft | 414 kts | 285° |
| 2026-05-04 13:37 | 29.06063 | 44.25693 | 33863 ft | 414 kts | 285° |
| 2026-05-04 13:37 | 29.08316 | 44.19636 | 33874 ft | 414 kts | 285° |
| 2026-05-04 13:38 | 29.10552 | 44.13612 | 33870 ft | 415 kts | 285° |
| 2026-05-04 13:38 | 29.12822 | 44.07490 | 33868 ft | 415 kts | 285° |
| 2026-05-04 13:39 | 29.15070 | 44.01415 | 33886 ft | 415 kts | 285° |
| 2026-05-04 13:39 | 29.17292 | 43.95399 | 33874 ft | 414 kts | 285° |
| 2026-05-04 13:40 | 29.19522 | 43.89350 | 33872 ft | 414 kts | 285° |
| 2026-05-04 13:40 | 29.21763 | 43.83259 | 33871 ft | 414 kts | 285° |
| 2026-05-04 13:41 | 29.23995 | 43.77185 | 33877 ft | 415 kts | 285° |
| 2026-05-04 13:41 | 29.26236 | 43.71075 | 33874 ft | 415 kts | 285° |
| 2026-05-04 13:42 | 29.28476 | 43.64958 | 34148 ft | 416 kts | 285° |
| 2026-05-04 13:42 | 29.29595 | 43.61902 | 34404 ft | 414 kts | 285° |
| 2026-05-04 13:42 | 29.30708 | 43.58860 | 34584 ft | 414 kts | 285° |
| 2026-05-04 13:42 | 29.31819 | 43.55817 | 34725 ft | 414 kts | 285° |
| 2026-05-04 13:43 | 29.32931 | 43.52768 | 34881 ft | 414 kts | 284° |
| 2026-05-04 13:43 | 29.34044 | 43.49717 | 35038 ft | 414 kts | 284° |
| 2026-05-04 13:43 | 29.35155 | 43.46669 | 35228 ft | 413 kts | 284° |
| 2026-05-04 13:43 | 29.36261 | 43.43627 | 35368 ft | 413 kts | 284° |
| 2026-05-04 13:44 | 29.37363 | 43.40597 | 35524 ft | 412 kts | 284° |
| 2026-05-04 13:44 | 29.38467 | 43.37555 | 35635 ft | 413 kts | 284° |
| 2026-05-04 13:44 | 29.39570 | 43.34515 | 35751 ft | 412 kts | 284° |
| 2026-05-04 13:44 | 29.40670 | 43.31480 | 35867 ft | 412 kts | 284° |
| 2026-05-04 13:45 | 29.42867 | 43.25413 | 35874 ft | 411 kts | 284° |
| 2026-05-04 13:45 | 29.45051 | 43.19367 | 35886 ft | 412 kts | 284° |
| 2026-05-04 13:46 | 29.47237 | 43.13306 | 35884 ft | 413 kts | 284° |
| 2026-05-04 13:46 | 29.49417 | 43.07256 | 35885 ft | 413 kts | 284° |
| 2026-05-04 13:47 | 29.51606 | 43.01170 | 35891 ft | 413 kts | 284° |
| 2026-05-04 13:47 | 29.53778 | 42.95118 | 35888 ft | 415 kts | 284° |
| 2026-05-04 13:48 | 29.55991 | 42.88949 | 35889 ft | 415 kts | 284° |
| 2026-05-04 13:48 | 29.58164 | 42.82880 | 35887 ft | 415 kts | 284° |
| 2026-05-04 13:49 | 29.60358 | 42.76740 | 35890 ft | 415 kts | 284° |
| 2026-05-04 13:49 | 29.62528 | 42.70657 | 35889 ft | 415 kts | 284° |
| 2026-05-04 13:50 | 29.64708 | 42.64537 | 35897 ft | 415 kts | 284° |
| 2026-05-04 13:50 | 29.66885 | 42.58409 | 35902 ft | 416 kts | 284° |
| 2026-05-04 13:51 | 29.69076 | 42.52232 | 35909 ft | 417 kts | 284° |
| 2026-05-04 13:51 | 29.71258 | 42.46075 | 35907 ft | 417 kts | 284° |
| 2026-05-04 13:52 | 29.74443 | 42.37063 | 35915 ft | 417 kts | 284° |
| 2026-05-04 13:53 | 29.76527 | 42.31155 | 35905 ft | 418 kts | 284° |
| 2026-05-04 13:53 | 29.78699 | 42.24988 | 35906 ft | 417 kts | 284° |
| 2026-05-04 13:54 | 29.81945 | 42.15752 | 35918 ft | 417 kts | 284° |
| 2026-05-04 13:55 | 29.85177 | 42.06528 | 35917 ft | 417 kts | 284° |
| 2026-05-04 13:55 | 29.88418 | 41.97257 | 35930 ft | 417 kts | 284° |
| 2026-05-04 13:56 | 29.90575 | 41.91070 | 35923 ft | 417 kts | 284° |
| 2026-05-04 13:57 | 29.93790 | 41.81831 | 35923 ft | 417 kts | 284° |
| 2026-05-04 13:58 | 29.98068 | 41.69500 | 35930 ft | 417 kts | 284° |
| 2026-05-04 13:58 | 30.01271 | 41.60238 | 35938 ft | 417 kts | 284° |
| 2026-05-04 13:59 | 30.03380 | 41.54128 | 35957 ft | 417 kts | 284° |
| 2026-05-04 14:00 | 30.06560 | 41.44893 | 35940 ft | 417 kts | 284° |
| 2026-05-04 14:00 | 30.09736 | 41.35643 | 35940 ft | 416 kts | 284° |
| 2026-05-04 14:01 | 30.11848 | 41.29485 | 35952 ft | 415 kts | 284° |
| 2026-05-04 14:02 | 30.15017 | 41.20209 | 35946 ft | 415 kts | 283° |
| 2026-05-04 14:02 | 30.17117 | 41.14051 | 35947 ft | 415 kts | 283° |
| 2026-05-04 14:03 | 30.19211 | 41.07908 | 35955 ft | 412 kts | 283° |
| 2026-05-04 14:03 | 30.21281 | 41.01813 | 35949 ft | 412 kts | 283° |
| 2026-05-04 14:04 | 30.24398 | 40.92622 | 35950 ft | 412 kts | 283° |
| 2026-05-04 14:04 | 30.26476 | 40.86480 | 35964 ft | 409 kts | 283° |
| 2026-05-04 14:05 | 30.29565 | 40.77325 | 35956 ft | 409 kts | 283° |
| 2026-05-04 14:06 | 30.31608 | 40.71256 | 35953 ft | 409 kts | 283° |
| 2026-05-04 14:06 | 30.33654 | 40.65169 | 35954 ft | 409 kts | 283° |
| 2026-05-04 14:07 | 30.35698 | 40.59078 | 35959 ft | 409 kts | 283° |
| 2026-05-04 14:07 | 30.37746 | 40.52964 | 35959 ft | 409 kts | 283° |
| 2026-05-04 14:08 | 30.39795 | 40.46836 | 35998 ft | 409 kts | 283° |
| 2026-05-04 14:08 | 30.41837 | 40.40722 | 35964 ft | 407 kts | 283° |
| 2026-05-04 14:09 | 30.44874 | 40.31604 | 35958 ft | 406 kts | 283° |
| 2026-05-04 14:10 | 30.47907 | 40.22469 | 35975 ft | 406 kts | 283° |
| 2026-05-04 14:10 | 30.49582 | 40.17417 | 35967 ft | 405 kts | 283° |
| 2026-05-04 14:11 | 30.51589 | 40.11354 | 35970 ft | 405 kts | 283° |
| 2026-05-04 14:11 | 30.54588 | 40.02269 | 36005 ft | 405 kts | 283° |
| 2026-05-04 14:12 | 30.56585 | 39.96203 | 35984 ft | 405 kts | 283° |
| 2026-05-04 14:13 | 30.59593 | 39.87049 | 35983 ft | 405 kts | 283° |
| 2026-05-04 14:13 | 30.61594 | 39.80946 | 35993 ft | 405 kts | 283° |
| 2026-05-04 14:14 | 30.63590 | 39.74846 | 36000 ft | 405 kts | 283° |
| 2026-05-04 14:14 | 30.66580 | 39.65688 | 35998 ft | 406 kts | 283° |
| 2026-05-04 14:15 | 30.70562 | 39.53456 | 36008 ft | 406 kts | 283° |
| 2026-05-04 14:16 | 30.73538 | 39.44284 | 36012 ft | 407 kts | 283° |
| 2026-05-04 14:17 | 30.76509 | 39.35103 | 36029 ft | 406 kts | 283° |
| 2026-05-04 14:18 | 30.79478 | 39.25896 | 36017 ft | 407 kts | 283° |
| 2026-05-04 14:19 | 30.83426 | 39.13619 | 36014 ft | 407 kts | 283° |
| 2026-05-04 14:19 | 30.85391 | 39.07491 | 36026 ft | 405 kts | 283° |
| 2026-05-04 14:20 | 30.87348 | 39.01375 | 36019 ft | 405 kts | 283° |
| 2026-05-04 14:20 | 30.89297 | 38.95274 | 36010 ft | 405 kts | 283° |
| 2026-05-04 14:21 | 30.92224 | 38.86092 | 36041 ft | 403 kts | 282° |
| 2026-05-04 14:21 | 30.94159 | 38.80010 | 36007 ft | 401 kts | 282° |
| 2026-05-04 14:22 | 30.96082 | 38.73945 | 36005 ft | 402 kts | 282° |
| 2026-05-04 14:22 | 30.98008 | 38.67865 | 36004 ft | 402 kts | 282° |
| 2026-05-04 14:23 | 31.00884 | 38.58767 | 36008 ft | 401 kts | 282° |
| 2026-05-04 14:24 | 31.02808 | 38.52663 | 36008 ft | 401 kts | 282° |
| 2026-05-04 14:24 | 31.04726 | 38.46564 | 36007 ft | 401 kts | 282° |
| 2026-05-04 14:25 | 31.06645 | 38.40453 | 36005 ft | 401 kts | 282° |
| 2026-05-04 14:25 | 31.09506 | 38.31321 | 36005 ft | 401 kts | 282° |
| 2026-05-04 14:26 | 31.11415 | 38.25214 | 36004 ft | 401 kts | 282° |
| 2026-05-04 14:26 | 31.13325 | 38.19092 | 36022 ft | 401 kts | 282° |
| 2026-05-04 14:27 | 31.15226 | 38.12986 | 36011 ft | 399 kts | 282° |
| 2026-05-04 14:27 | 31.17116 | 38.06907 | 36005 ft | 399 kts | 282° |
| 2026-05-04 14:28 | 31.19004 | 38.00822 | 36005 ft | 399 kts | 282° |
| 2026-05-04 14:28 | 31.20879 | 37.94764 | 36041 ft | 399 kts | 282° |
| 2026-05-04 14:29 | 31.24633 | 37.82606 | 36006 ft | 398 kts | 282° |
| 2026-05-04 14:30 | 31.26501 | 37.76537 | 36004 ft | 398 kts | 282° |
| 2026-05-04 14:31 | 31.29282 | 37.67480 | 36014 ft | 400 kts | 282° |
| 2026-05-04 14:32 | 31.33014 | 37.55288 | 36008 ft | 400 kts | 282° |
| 2026-05-04 14:32 | 31.34852 | 37.49261 | 35989 ft | 399 kts | 282° |
| 2026-05-04 14:33 | 31.36702 | 37.43190 | 36000 ft | 398 kts | 282° |
| 2026-05-04 14:33 | 31.38548 | 37.37116 | 35977 ft | 398 kts | 282° |
| 2026-05-04 14:34 | 31.40401 | 37.31007 | 35981 ft | 398 kts | 282° |
| 2026-05-04 14:34 | 31.42243 | 37.24926 | 35980 ft | 398 kts | 282° |
| 2026-05-04 14:35 | 31.44079 | 37.18853 | 35986 ft | 397 kts | 282° |
| 2026-05-04 14:35 | 31.45905 | 37.12798 | 35985 ft | 397 kts | 282° |
| 2026-05-04 14:36 | 31.47726 | 37.06748 | 35993 ft | 396 kts | 282° |
| 2026-05-04 14:36 | 31.49548 | 37.00676 | 35995 ft | 396 kts | 281° |
| 2026-05-04 14:37 | 31.51321 | 36.94585 | 36020 ft | 395 kts | 281° |
| 2026-05-04 14:37 | 31.53072 | 36.88533 | 36018 ft | 395 kts | 281° |
| 2026-05-04 14:38 | 31.54834 | 36.82444 | 36026 ft | 395 kts | 281° |
| 2026-05-04 14:38 | 31.56589 | 36.76364 | 36023 ft | 395 kts | 281° |
| 2026-05-04 14:39 | 31.58283 | 36.70512 | 36036 ft | 397 kts | 281° |
| 2026-05-04 14:39 | 31.60047 | 36.64414 | 36037 ft | 397 kts | 281° |
| 2026-05-04 14:40 | 31.62702 | 36.55237 | 35998 ft | 397 kts | 281° |
| 2026-05-04 14:40 | 31.64459 | 36.49155 | 36053 ft | 398 kts | 281° |
| 2026-05-04 14:41 | 31.66222 | 36.43018 | 36052 ft | 399 kts | 281° |
| 2026-05-04 14:42 | 31.69742 | 36.30688 | 36055 ft | 399 kts | 281° |
| 2026-05-04 14:42 | 31.71484 | 36.24564 | 36076 ft | 399 kts | 281° |
| 2026-05-04 14:43 | 31.73115 | 36.18356 | 36067 ft | 397 kts | 278° |
| 2026-05-04 14:43 | 31.74286 | 36.12059 | 36058 ft | 394 kts | 274° |
| 2026-05-04 14:44 | 31.75047 | 36.05707 | 36057 ft | 392 kts | 272° |
| 2026-05-04 14:44 | 31.75749 | 35.99348 | 36063 ft | 392 kts | 272° |
| 2026-05-04 14:45 | 31.76437 | 35.93025 | 36058 ft | 392 kts | 272° |
| 2026-05-04 14:45 | 31.77114 | 35.86741 | 36065 ft | 392 kts | 272° |
| 2026-05-04 14:46 | 31.77781 | 35.80510 | 36057 ft | 392 kts | 272° |
| 2026-05-04 14:46 | 31.78451 | 35.74211 | 36119 ft | 392 kts | 272° |
| 2026-05-04 14:47 | 31.79113 | 35.67961 | 36064 ft | 389 kts | 272° |
| 2026-05-04 14:47 | 31.80025 | 35.61748 | 36051 ft | 392 kts | 276° |
| 2026-05-04 14:48 | 31.81394 | 35.55518 | 36049 ft | 395 kts | 280° |
| 2026-05-04 14:48 | 31.83003 | 35.49359 | 36096 ft | 397 kts | 282° |
| 2026-05-04 14:49 | 31.84819 | 35.43277 | 36053 ft | 393 kts | 282° |
| 2026-05-04 14:49 | 31.86625 | 35.37245 | 36046 ft | 392 kts | 282° |
| 2026-05-04 14:50 | 31.88431 | 35.31198 | 36046 ft | 392 kts | 282° |
| 2026-05-04 14:50 | 31.90238 | 35.25143 | 36042 ft | 392 kts | 282° |
| 2026-05-04 14:51 | 31.92042 | 35.19043 | 36036 ft | 398 kts | 282° |
| 2026-05-04 14:51 | 31.93866 | 35.12859 | 36045 ft | 400 kts | 282° |
| 2026-05-04 14:52 | 31.95697 | 35.06674 | 36053 ft | 401 kts | 282° |
| 2026-05-04 14:52 | 31.97521 | 35.00492 | 36059 ft | 400 kts | 282° |
| 2026-05-04 14:53 | 31.99286 | 34.94311 | 36072 ft | 398 kts | 280° |
| 2026-05-04 14:53 | 32.00638 | 34.88041 | 36064 ft | 395 kts | 276° |
| 2026-05-04 14:54 | 32.01513 | 34.81720 | 36062 ft | 392 kts | 272° |
| 2026-05-04 14:54 | 32.01950 | 34.75630 | 36059 ft | 390 kts | 270° |
| 2026-05-04 14:55 | 32.02291 | 34.69882 | 36064 ft | 391 kts | 270° |
| 2026-05-04 14:55 | 32.02609 | 34.64305 | 36031 ft | 392 kts | 270° |
| 2026-05-04 14:56 | 32.02914 | 34.58766 | 35997 ft | 391 kts | 270° |
| 2026-05-04 14:56 | 32.03162 | 34.54144 | 36019 ft | 390 kts | 270° |
| 2026-05-04 14:57 | 32.03451 | 34.48889 | 36023 ft | 390 kts | 270° |
| 2026-05-04 14:57 | 32.03828 | 34.42215 | 36024 ft | 392 kts | 270° |
| 2026-05-04 14:58 | 32.04131 | 34.36842 | 36021 ft | 392 kts | 270° |
| 2026-05-04 14:58 | 32.04758 | 34.30436 | 36017 ft | 395 kts | 275° |
| 2026-05-04 14:59 | 32.06030 | 34.24099 | 36017 ft | 399 kts | 281° |
| 2026-05-04 15:00 | 32.09163 | 34.14891 | 36018 ft | 408 kts | 290° |
| 2026-05-04 15:00 | 32.11971 | 34.09086 | 36017 ft | 412 kts | 293° |
| 2026-05-04 15:01 | 32.16433 | 34.00349 | 36014 ft | 413 kts | 295° |
| 2026-05-04 15:01 | 32.19677 | 33.94769 | 36039 ft | 416 kts | 297° |
| 2026-05-04 15:02 | 32.23031 | 33.89193 | 36015 ft | 416 kts | 298° |
| 2026-05-04 15:02 | 32.26389 | 33.83619 | 36056 ft | 416 kts | 298° |
| 2026-05-04 15:03 | 32.29726 | 33.78075 | 36010 ft | 414 kts | 297° |
| 2026-05-04 15:03 | 32.33046 | 33.72546 | 36008 ft | 413 kts | 297° |
| 2026-05-04 15:04 | 32.36344 | 33.67042 | 36014 ft | 413 kts | 298° |
| 2026-05-04 15:04 | 32.39668 | 33.61489 | 36006 ft | 412 kts | 298° |
| 2026-05-04 15:05 | 32.42970 | 33.55966 | 36004 ft | 412 kts | 298° |
| 2026-05-04 15:05 | 32.46272 | 33.50434 | 36001 ft | 412 kts | 297° |
| 2026-05-04 15:06 | 32.49578 | 33.44889 | 36003 ft | 412 kts | 297° |
| 2026-05-04 15:07 | 32.54521 | 33.36579 | 36001 ft | 412 kts | 297° |
| 2026-05-04 15:07 | 32.57825 | 33.31014 | 36001 ft | 412 kts | 297° |
| 2026-05-04 15:08 | 32.61113 | 33.25468 | 36001 ft | 412 kts | 297° |
| 2026-05-04 15:08 | 32.64377 | 33.19955 | 35995 ft | 412 kts | 297° |
| 2026-05-04 15:09 | 32.67673 | 33.14377 | 36017 ft | 412 kts | 297° |
| 2026-05-04 15:09 | 32.70957 | 33.08813 | 36000 ft | 412 kts | 297° |
| 2026-05-04 15:10 | 32.75892 | 33.00433 | 35999 ft | 413 kts | 298° |
| 2026-05-04 15:11 | 32.80821 | 32.92053 | 35996 ft | 413 kts | 298° |
| 2026-05-04 15:11 | 32.84100 | 32.86462 | 35993 ft | 413 kts | 298° |
| 2026-05-04 15:12 | 32.87378 | 32.80868 | 35988 ft | 413 kts | 298° |
| 2026-05-04 15:12 | 32.90661 | 32.75258 | 35986 ft | 413 kts | 298° |
| 2026-05-04 15:13 | 32.93941 | 32.69643 | 35987 ft | 413 kts | 298° |
| 2026-05-04 15:13 | 32.97225 | 32.64014 | 35987 ft | 413 kts | 298° |
| 2026-05-04 15:14 | 33.00498 | 32.58389 | 35996 ft | 414 kts | 298° |
| 2026-05-04 15:14 | 33.03783 | 32.52741 | 35982 ft | 414 kts | 298° |
| 2026-05-04 15:15 | 33.07061 | 32.47098 | 35985 ft | 414 kts | 298° |
| 2026-05-04 15:15 | 33.10340 | 32.41443 | 35982 ft | 414 kts | 298° |
| 2026-05-04 15:16 | 33.15246 | 32.32961 | 35995 ft | 414 kts | 298° |
| 2026-05-04 15:17 | 33.20150 | 32.24462 | 35985 ft | 414 kts | 298° |
| 2026-05-04 15:17 | 33.25046 | 32.15966 | 35978 ft | 414 kts | 298° |
| 2026-05-04 15:18 | 33.28310 | 32.10289 | 35975 ft | 414 kts | 298° |
| 2026-05-04 15:19 | 33.33189 | 32.01778 | 35985 ft | 413 kts | 299° |
| 2026-05-04 15:19 | 33.38059 | 31.93277 | 35962 ft | 412 kts | 299° |
| 2026-05-04 15:20 | 33.41301 | 31.87605 | 35970 ft | 412 kts | 299° |
| 2026-05-04 15:20 | 33.44532 | 31.81941 | 35968 ft | 412 kts | 299° |
| 2026-05-04 15:21 | 33.47760 | 31.76267 | 35967 ft | 411 kts | 299° |
| 2026-05-04 15:22 | 33.52567 | 31.67817 | 35976 ft | 411 kts | 299° |
| 2026-05-04 15:22 | 33.57390 | 31.59316 | 35959 ft | 411 kts | 299° |
| 2026-05-04 15:23 | 33.60600 | 31.53646 | 35972 ft | 411 kts | 299° |
| 2026-05-04 15:23 | 33.63804 | 31.47972 | 35995 ft | 411 kts | 300° |
| 2026-05-04 15:24 | 33.70240 | 31.36563 | 35966 ft | 413 kts | 300° |
| 2026-05-04 15:25 | 33.73452 | 31.30855 | 35960 ft | 413 kts | 299° |
| 2026-05-04 15:26 | 33.78267 | 31.22277 | 35962 ft | 413 kts | 300° |
| 2026-05-04 15:26 | 33.83081 | 31.13685 | 35962 ft | 413 kts | 300° |
| 2026-05-04 15:27 | 33.87888 | 31.05085 | 35962 ft | 413 kts | 300° |
| 2026-05-04 15:28 | 33.92684 | 30.96481 | 35954 ft | 413 kts | 300° |
| 2026-05-04 15:29 | 33.97468 | 30.87876 | 35958 ft | 414 kts | 300° |
| 2026-05-04 15:30 | 34.08667 | 30.67662 | 35975 ft | 415 kts | 300° |
| 2026-05-04 15:31 | 34.13500 | 30.58898 | 35955 ft | 419 kts | 300° |
| 2026-05-04 15:32 | 34.21562 | 30.44242 | 35960 ft | 419 kts | 300° |
| 2026-05-04 15:34 | 34.29603 | 30.29559 | 35959 ft | 419 kts | 300° |
| 2026-05-04 15:34 | 34.34427 | 30.20723 | 35957 ft | 419 kts | 300° |
| 2026-05-04 15:35 | 34.39241 | 30.11881 | 35957 ft | 419 kts | 300° |
| 2026-05-04 15:36 | 34.44140 | 30.03057 | 35961 ft | 422 kts | 303° |
| 2026-05-04 15:36 | 34.47848 | 29.97516 | 35942 ft | 425 kts | 308° |
| 2026-05-04 15:37 | 34.51934 | 29.92322 | 35963 ft | 427 kts | 310° |
| 2026-05-04 15:37 | 34.56452 | 29.87589 | 35948 ft | 431 kts | 316° |
| 2026-05-04 15:38 | 34.61121 | 29.83036 | 35959 ft | 430 kts | 316° |
| 2026-05-04 15:38 | 34.65768 | 29.78465 | 35941 ft | 430 kts | 316° |
| 2026-05-04 15:39 | 34.70414 | 29.73876 | 35957 ft | 430 kts | 316° |
| 2026-05-04 15:40 | 34.77307 | 29.67041 | 35952 ft | 430 kts | 316° |
| 2026-05-04 15:40 | 34.81951 | 29.62422 | 35960 ft | 431 kts | 316° |
| 2026-05-04 15:41 | 34.86618 | 29.57770 | 35955 ft | 435 kts | 316° |
| 2026-05-04 15:41 | 34.91297 | 29.53108 | 35960 ft | 435 kts | 317° |
| 2026-05-04 15:42 | 34.95982 | 29.48425 | 35953 ft | 437 kts | 317° |
| 2026-05-04 15:42 | 35.00673 | 29.43737 | 35950 ft | 437 kts | 317° |
| 2026-05-04 15:43 | 35.05363 | 29.39043 | 35946 ft | 437 kts | 317° |
| 2026-05-04 15:43 | 35.10069 | 29.34351 | 35946 ft | 437 kts | 317° |
| 2026-05-04 15:44 | 35.14774 | 29.29647 | 35960 ft | 438 kts | 317° |
| 2026-05-04 15:44 | 35.19500 | 29.24921 | 35945 ft | 439 kts | 317° |
| 2026-05-04 15:45 | 35.24224 | 29.20185 | 35947 ft | 438 kts | 318° |
| 2026-05-04 15:45 | 35.28144 | 29.16255 | 35946 ft | 438 kts | 318° |
| 2026-05-04 15:46 | 35.32847 | 29.11532 | 35949 ft | 438 kts | 318° |
| 2026-05-04 15:46 | 35.37562 | 29.06787 | 35949 ft | 438 kts | 318° |
| 2026-05-04 15:47 | 35.42273 | 29.02039 | 35959 ft | 438 kts | 318° |
| 2026-05-04 15:47 | 35.46982 | 28.97279 | 35956 ft | 440 kts | 318° |
| 2026-05-04 15:48 | 35.51712 | 28.92496 | 35950 ft | 439 kts | 318° |
| 2026-05-04 15:48 | 35.58775 | 28.85344 | 35955 ft | 439 kts | 318° |
| 2026-05-04 15:49 | 35.63488 | 28.80560 | 35954 ft | 439 kts | 318° |
| 2026-05-04 15:49 | 35.68194 | 28.75775 | 35957 ft | 439 kts | 318° |
| 2026-05-04 15:50 | 35.72893 | 28.70989 | 35977 ft | 439 kts | 318° |
| 2026-05-04 15:50 | 35.77602 | 28.66184 | 35957 ft | 440 kts | 318° |
| 2026-05-04 15:51 | 35.82315 | 28.61367 | 35959 ft | 441 kts | 319° |
| 2026-05-04 15:51 | 35.87045 | 28.56528 | 35963 ft | 442 kts | 319° |
| 2026-05-04 15:52 | 35.91761 | 28.51696 | 35965 ft | 442 kts | 319° |
| 2026-05-04 15:52 | 35.96502 | 28.46828 | 35967 ft | 442 kts | 319° |
| 2026-05-04 15:53 | 36.01220 | 28.41974 | 35976 ft | 443 kts | 319° |
| 2026-05-04 15:53 | 36.05937 | 28.37126 | 35982 ft | 441 kts | 319° |
| 2026-05-04 15:54 | 36.10651 | 28.32293 | 35973 ft | 442 kts | 319° |
| 2026-05-04 15:54 | 36.15384 | 28.27435 | 35996 ft | 442 kts | 319° |
| 2026-05-04 15:55 | 36.20096 | 28.22589 | 35994 ft | 438 kts | 319° |
| 2026-05-04 15:55 | 36.24788 | 28.17749 | 36000 ft | 440 kts | 319° |
| 2026-05-04 15:56 | 36.29495 | 28.12887 | 36012 ft | 442 kts | 319° |
| 2026-05-04 15:56 | 36.34167 | 28.08001 | 36007 ft | 443 kts | 317° |
| 2026-05-04 15:57 | 36.38748 | 28.02767 | 36002 ft | 445 kts | 317° |
| 2026-05-04 15:57 | 36.43278 | 27.97535 | 36006 ft | 445 kts | 317° |
| 2026-05-04 15:58 | 36.47804 | 27.92300 | 36010 ft | 444 kts | 317° |
| 2026-05-04 15:58 | 36.52319 | 27.87071 | 36011 ft | 444 kts | 317° |
| 2026-05-04 15:59 | 36.56812 | 27.81858 | 36024 ft | 444 kts | 317° |
| 2026-05-04 15:59 | 36.61321 | 27.76617 | 36021 ft | 443 kts | 316° |
| 2026-05-04 16:00 | 36.65819 | 27.71377 | 36028 ft | 446 kts | 317° |
| 2026-05-04 16:00 | 36.70351 | 27.66095 | 36028 ft | 446 kts | 317° |
| 2026-05-04 16:01 | 36.74871 | 27.60819 | 36027 ft | 445 kts | 317° |
| 2026-05-04 16:01 | 36.79386 | 27.55538 | 36024 ft | 445 kts | 317° |
| 2026-05-04 16:02 | 36.83892 | 27.50258 | 36026 ft | 444 kts | 317° |
| 2026-05-04 16:03 | 36.90621 | 27.42356 | 36023 ft | 445 kts | 317° |
| 2026-05-04 16:03 | 36.95101 | 27.37080 | 36034 ft | 445 kts | 317° |
| 2026-05-04 16:04 | 36.99592 | 27.31784 | 36037 ft | 446 kts | 317° |
| 2026-05-04 16:04 | 37.06326 | 27.23832 | 36032 ft | 446 kts | 317° |
| 2026-05-04 16:05 | 37.10802 | 27.18533 | 36039 ft | 446 kts | 317° |
| 2026-05-04 16:06 | 37.17580 | 27.10491 | 36042 ft | 448 kts | 317° |
| 2026-05-04 16:07 | 37.26607 | 26.99743 | 36046 ft | 448 kts | 317° |
| 2026-05-04 16:08 | 37.35657 | 26.88938 | 36051 ft | 449 kts | 317° |
| 2026-05-04 16:09 | 37.47279 | 26.75888 | 36055 ft | 449 kts | 320° |
| 2026-05-04 16:10 | 37.56734 | 26.65675 | 36061 ft | 449 kts | 320° |
| 2026-05-04 16:11 | 37.66169 | 26.55432 | 36055 ft | 448 kts | 320° |
| 2026-05-04 16:12 | 37.80300 | 26.40065 | 36072 ft | 447 kts | 320° |
| 2026-05-04 16:13 | 37.89716 | 26.29776 | 36074 ft | 448 kts | 319° |
| 2026-05-04 16:14 | 37.99113 | 26.19445 | 36077 ft | 447 kts | 320° |
| 2026-05-04 16:16 | 38.10844 | 26.06514 | 36082 ft | 447 kts | 320° |
| 2026-05-04 16:17 | 38.22596 | 25.93480 | 36078 ft | 450 kts | 320° |
| 2026-05-04 16:18 | 38.32373 | 25.83610 | 36089 ft | 449 kts | 324° |
| 2026-05-04 16:19 | 38.44775 | 25.71518 | 36093 ft | 450 kts | 323° |
| 2026-05-04 16:20 | 38.57214 | 25.59341 | 36090 ft | 450 kts | 323° |
| 2026-05-04 16:22 | 38.69595 | 25.47162 | 36094 ft | 451 kts | 323° |
| 2026-05-04 16:23 | 38.84566 | 25.32570 | 36086 ft | 452 kts | 324° |
| 2026-05-04 16:25 | 38.99595 | 25.17898 | 36100 ft | 453 kts | 324° |
| 2026-05-04 16:26 | 39.18211 | 25.02673 | 36097 ft | 453 kts | 329° |
| 2026-05-04 16:28 | 39.31705 | 24.92022 | 36096 ft | 455 kts | 329° |
| 2026-05-04 16:29 | 39.50669 | 24.77083 | 36088 ft | 457 kts | 329° |
| 2026-05-04 16:31 | 39.64188 | 24.66375 | 36088 ft | 457 kts | 329° |
| 2026-05-04 16:32 | 39.79570 | 24.54123 | 36085 ft | 457 kts | 329° |
| 2026-05-04 16:33 | 39.90362 | 24.45491 | 36077 ft | 458 kts | 329° |
| 2026-05-04 16:34 | 39.98539 | 24.38925 | 36072 ft | 459 kts | 329° |
| 2026-05-04 16:35 | 40.14790 | 24.25829 | 36068 ft | 459 kts | 329° |
| 2026-05-04 16:36 | 40.22916 | 24.19249 | 36064 ft | 458 kts | 329° |
| 2026-05-04 16:37 | 40.31038 | 24.12654 | 36062 ft | 458 kts | 329° |
| 2026-05-04 16:38 | 40.41884 | 24.03827 | 36059 ft | 460 kts | 329° |
| 2026-05-04 16:39 | 40.55406 | 23.92761 | 36059 ft | 457 kts | 328° |
| 2026-05-04 16:40 | 40.66200 | 23.83891 | 36063 ft | 457 kts | 328° |
| 2026-05-04 16:41 | 40.79609 | 23.72824 | 36057 ft | 456 kts | 329° |
| 2026-05-04 16:43 | 40.93039 | 23.61685 | 36071 ft | 455 kts | 328° |
| 2026-05-04 16:43 | 41.01097 | 23.54979 | 36068 ft | 459 kts | 328° |
| 2026-05-04 16:45 | 41.17295 | 23.41433 | 36065 ft | 459 kts | 328° |
| 2026-05-04 16:46 | 41.30816 | 23.30069 | 36078 ft | 461 kts | 328° |
| 2026-05-04 16:47 | 41.41643 | 23.20926 | 36078 ft | 461 kts | 328° |
| 2026-05-04 16:48 | 41.52470 | 23.11745 | 36083 ft | 461 kts | 328° |
| 2026-05-04 16:49 | 41.63208 | 23.02605 | 36091 ft | 458 kts | 328° |
| 2026-05-04 16:50 | 41.73893 | 22.93474 | 36097 ft | 455 kts | 328° |
| 2026-05-04 16:51 | 41.81889 | 22.86619 | 36099 ft | 454 kts | 328° |
| 2026-05-04 16:52 | 41.92507 | 22.77480 | 36098 ft | 455 kts | 328° |
| 2026-05-04 16:53 | 42.00453 | 22.70615 | 36112 ft | 453 kts | 328° |
| 2026-05-04 16:54 | 42.11052 | 22.61430 | 36109 ft | 453 kts | 328° |
| 2026-05-04 16:55 | 42.26972 | 22.47560 | 36115 ft | 455 kts | 328° |
| 2026-05-04 16:56 | 42.40133 | 22.36043 | 36121 ft | 449 kts | 329° |
| 2026-05-04 16:57 | 42.47988 | 22.29222 | 36120 ft | 449 kts | 329° |
| 2026-05-04 16:58 | 42.58492 | 22.20057 | 36118 ft | 449 kts | 328° |
| 2026-05-04 17:00 | 42.73806 | 22.05443 | 36109 ft | 448 kts | 320° |
| 2026-05-04 17:01 | 42.84644 | 21.90272 | 36108 ft | 449 kts | 315° |
| 2026-05-04 17:02 | 42.93198 | 21.77867 | 36107 ft | 448 kts | 315° |
| 2026-05-04 17:03 | 42.99591 | 21.68572 | 36106 ft | 447 kts | 315° |
| 2026-05-04 17:03 | 43.05954 | 21.59294 | 36114 ft | 447 kts | 315° |
| 2026-05-04 17:04 | 43.14458 | 21.46847 | 36114 ft | 448 kts | 315° |
| 2026-05-04 17:05 | 43.22963 | 21.34341 | 36115 ft | 449 kts | 315° |
| 2026-05-04 17:06 | 43.29341 | 21.24924 | 36110 ft | 447 kts | 315° |
| 2026-05-04 17:07 | 43.34968 | 21.16594 | 36113 ft | 447 kts | 315° |
| 2026-05-04 17:07 | 43.39884 | 21.09297 | 36118 ft | 447 kts | 315° |
| 2026-05-04 17:08 | 43.46205 | 20.99886 | 36110 ft | 447 kts | 315° |
| 2026-05-04 17:09 | 43.50399 | 20.93623 | 36110 ft | 447 kts | 315° |
| 2026-05-04 17:09 | 43.54581 | 20.87365 | 36116 ft | 447 kts | 315° |
| 2026-05-04 17:10 | 43.58808 | 20.81028 | 36359 ft | 449 kts | 315° |
| 2026-05-04 17:10 | 43.65126 | 20.71528 | 36987 ft | 447 kts | 314° |
| 2026-05-04 17:11 | 43.67229 | 20.68358 | 37172 ft | 447 kts | 314° |
| 2026-05-04 17:11 | 43.69333 | 20.65184 | 37319 ft | 448 kts | 314° |
| 2026-05-04 17:11 | 43.73546 | 20.58816 | 37573 ft | 449 kts | 314° |
| 2026-05-04 17:12 | 43.75653 | 20.55625 | 37730 ft | 449 kts | 314° |
| 2026-05-04 17:12 | 43.79866 | 20.49237 | 37977 ft | 449 kts | 314° |
| 2026-05-04 17:13 | 43.86169 | 20.39648 | 38091 ft | 449 kts | 314° |
| 2026-05-04 17:14 | 43.94445 | 20.27005 | 38098 ft | 449 kts | 313° |
| 2026-05-04 17:15 | 44.00689 | 20.17432 | 38092 ft | 448 kts | 313° |
| 2026-05-04 17:16 | 44.08706 | 20.05094 | 38089 ft | 448 kts | 313° |
| 2026-05-04 17:17 | 44.16845 | 19.92518 | 38085 ft | 447 kts | 313° |
| 2026-05-04 17:18 | 44.24926 | 19.79975 | 38087 ft | 447 kts | 313° |
| 2026-05-04 17:19 | 44.32329 | 19.68437 | 38076 ft | 448 kts | 313° |
| 2026-05-04 17:20 | 44.40450 | 19.55718 | 38077 ft | 448 kts | 313° |
| 2026-05-04 17:20 | 44.46642 | 19.45988 | 38064 ft | 448 kts | 313° |
| 2026-05-04 17:21 | 44.54662 | 19.33328 | 38069 ft | 449 kts | 312° |
| 2026-05-04 17:22 | 44.58358 | 19.27472 | 38067 ft | 449 kts | 312° |
| 2026-05-04 17:23 | 44.66619 | 19.14351 | 38064 ft | 448 kts | 312° |
| 2026-05-04 17:24 | 44.72792 | 19.04499 | 38062 ft | 448 kts | 312° |
| 2026-05-04 17:25 | 44.81023 | 18.91312 | 38066 ft | 449 kts | 312° |
| 2026-05-04 17:26 | 44.89247 | 18.78076 | 38063 ft | 449 kts | 312° |
| 2026-05-04 17:27 | 44.99507 | 18.61477 | 38054 ft | 448 kts | 311° |
| 2026-05-04 17:28 | 45.07409 | 18.48622 | 38056 ft | 448 kts | 311° |
| 2026-05-04 17:29 | 45.19514 | 18.28820 | 38047 ft | 447 kts | 311° |
| 2026-05-04 17:31 | 45.29482 | 18.12402 | 38051 ft | 447 kts | 311° |
| 2026-05-04 17:32 | 45.39071 | 17.96521 | 38049 ft | 447 kts | 311° |
| 2026-05-04 17:33 | 45.47092 | 17.83164 | 38047 ft | 447 kts | 311° |
| 2026-05-04 17:34 | 45.54985 | 17.69966 | 38043 ft | 448 kts | 310° |
| 2026-05-04 17:35 | 45.64598 | 17.53792 | 38041 ft | 449 kts | 310° |
| 2026-05-04 17:36 | 45.68389 | 17.47390 | 38033 ft | 449 kts | 310° |
| 2026-05-04 17:36 | 45.72283 | 17.40805 | 38036 ft | 449 kts | 310° |
| 2026-05-04 17:37 | 45.76275 | 17.34029 | 38036 ft | 449 kts | 310° |
| 2026-05-04 17:37 | 45.80274 | 17.27228 | 38037 ft | 449 kts | 310° |
| 2026-05-04 17:38 | 45.84255 | 17.20439 | 38028 ft | 449 kts | 310° |
| 2026-05-04 17:38 | 45.88268 | 17.13586 | 38034 ft | 449 kts | 309° |
| 2026-05-04 17:39 | 45.94195 | 17.03420 | 38022 ft | 449 kts | 309° |
| 2026-05-04 17:39 | 45.98198 | 16.96535 | 38023 ft | 449 kts | 309° |
| 2026-05-04 17:40 | 46.02191 | 16.89652 | 38023 ft | 449 kts | 309° |
| 2026-05-04 17:40 | 46.06186 | 16.82754 | 38017 ft | 448 kts | 309° |
| 2026-05-04 17:41 | 46.10142 | 16.75897 | 38018 ft | 448 kts | 309° |
| 2026-05-04 17:41 | 46.13927 | 16.69321 | 38011 ft | 448 kts | 309° |
| 2026-05-04 17:42 | 46.17691 | 16.62767 | 38008 ft | 448 kts | 309° |
| 2026-05-04 17:42 | 46.21557 | 16.56020 | 38016 ft | 449 kts | 309° |
| 2026-05-04 17:43 | 46.25496 | 16.49133 | 38009 ft | 448 kts | 308° |
| 2026-05-04 17:43 | 46.29449 | 16.42194 | 38005 ft | 448 kts | 308° |
| 2026-05-04 17:44 | 46.33405 | 16.35233 | 38004 ft | 448 kts | 308° |
| 2026-05-04 17:44 | 46.37511 | 16.28453 | 38005 ft | 448 kts | 313° |
| 2026-05-04 17:45 | 46.42076 | 16.22281 | 38004 ft | 449 kts | 318° |
| 2026-05-04 17:45 | 46.46857 | 16.16486 | 38010 ft | 449 kts | 319° |
| 2026-05-04 17:46 | 46.51659 | 16.10687 | 38000 ft | 450 kts | 319° |
| 2026-05-04 17:46 | 46.56461 | 16.04863 | 38000 ft | 449 kts | 319° |
| 2026-05-04 17:47 | 46.61442 | 15.99259 | 37996 ft | 450 kts | 322° |
| 2026-05-04 17:47 | 46.66464 | 15.93850 | 37997 ft | 450 kts | 322° |
| 2026-05-04 17:48 | 46.71485 | 15.88383 | 38004 ft | 450 kts | 321° |
| 2026-05-04 17:48 | 46.76491 | 15.82893 | 37998 ft | 450 kts | 321° |
| 2026-05-04 17:49 | 46.81490 | 15.77387 | 37985 ft | 450 kts | 321° |
| 2026-05-04 17:49 | 46.86454 | 15.71902 | 37983 ft | 450 kts | 321° |
| 2026-05-04 17:50 | 46.91441 | 15.66379 | 37982 ft | 450 kts | 321° |
| 2026-05-04 17:50 | 46.96428 | 15.60842 | 37984 ft | 450 kts | 321° |
| 2026-05-04 17:51 | 47.01419 | 15.55285 | 37981 ft | 450 kts | 321° |
| 2026-05-04 17:51 | 47.06391 | 15.49737 | 37981 ft | 450 kts | 321° |
| 2026-05-04 17:52 | 47.11363 | 15.44176 | 37985 ft | 450 kts | 321° |
| 2026-05-04 17:52 | 47.16338 | 15.38599 | 37985 ft | 450 kts | 321° |
| 2026-05-04 17:53 | 47.21287 | 15.33037 | 37992 ft | 450 kts | 320° |
| 2026-05-04 17:53 | 47.26189 | 15.27512 | 37987 ft | 450 kts | 320° |
| 2026-05-04 17:54 | 47.31099 | 15.21968 | 37987 ft | 450 kts | 320° |
| 2026-05-04 17:54 | 47.35890 | 15.16544 | 37988 ft | 450 kts | 320° |
| 2026-05-04 17:55 | 47.40503 | 15.11310 | 37991 ft | 450 kts | 320° |
| 2026-05-04 17:55 | 47.45095 | 15.06087 | 37992 ft | 450 kts | 320° |
| 2026-05-04 17:56 | 47.49986 | 15.00514 | 37972 ft | 449 kts | 320° |
| 2026-05-04 17:56 | 47.54890 | 14.94904 | 37973 ft | 448 kts | 320° |
| 2026-05-04 17:57 | 47.59736 | 14.89363 | 37963 ft | 449 kts | 320° |
| 2026-05-04 17:57 | 47.64625 | 14.83754 | 37956 ft | 450 kts | 320° |
| 2026-05-04 17:58 | 47.69494 | 14.78157 | 37942 ft | 451 kts | 320° |
| 2026-05-04 17:58 | 47.74297 | 14.72627 | 37950 ft | 451 kts | 320° |
| 2026-05-04 17:59 | 47.79142 | 14.67026 | 37927 ft | 451 kts | 320° |
| 2026-05-04 18:00 | 47.85987 | 14.59092 | 37928 ft | 450 kts | 320° |
| 2026-05-04 18:00 | 47.90562 | 14.53769 | 37900 ft | 451 kts | 320° |
| 2026-05-04 18:01 | 47.95414 | 14.48116 | 37894 ft | 452 kts | 320° |
| 2026-05-04 18:01 | 48.00375 | 14.42329 | 37894 ft | 452 kts | 320° |
| 2026-05-04 18:02 | 48.07807 | 14.33627 | 37891 ft | 452 kts | 320° |
| 2026-05-04 18:02 | 48.12764 | 14.27801 | 37893 ft | 452 kts | 320° |
| 2026-05-04 18:03 | 48.17706 | 14.21980 | 37896 ft | 452 kts | 319° |
| 2026-05-04 18:03 | 48.22639 | 14.16155 | 37900 ft | 452 kts | 319° |
| 2026-05-04 18:04 | 48.27570 | 14.10315 | 37896 ft | 452 kts | 319° |
| 2026-05-04 18:05 | 48.34976 | 14.01515 | 37906 ft | 452 kts | 319° |
| 2026-05-04 18:05 | 48.39079 | 13.96626 | 37908 ft | 452 kts | 319° |
| 2026-05-04 18:06 | 48.46499 | 13.87762 | 37922 ft | 454 kts | 319° |
| 2026-05-04 18:06 | 48.51422 | 13.81859 | 37915 ft | 454 kts | 319° |
| 2026-05-04 18:07 | 48.56357 | 13.75924 | 37918 ft | 454 kts | 319° |
| 2026-05-04 18:07 | 48.61301 | 13.69963 | 37920 ft | 454 kts | 319° |
| 2026-05-04 18:08 | 48.66235 | 13.63998 | 37924 ft | 454 kts | 319° |
| 2026-05-04 18:08 | 48.71177 | 13.58025 | 37929 ft | 455 kts | 319° |
| 2026-05-04 18:09 | 48.81057 | 13.46049 | 37932 ft | 456 kts | 318° |
| 2026-05-04 18:10 | 48.86003 | 13.40024 | 37939 ft | 456 kts | 318° |
| 2026-05-04 18:10 | 48.90942 | 13.33992 | 37940 ft | 456 kts | 318° |
| 2026-05-04 18:11 | 48.95891 | 13.27934 | 37955 ft | 456 kts | 318° |
| 2026-05-04 18:11 | 49.00826 | 13.21878 | 37948 ft | 457 kts | 318° |
| 2026-05-04 18:12 | 49.05764 | 13.15798 | 37950 ft | 457 kts | 318° |
| 2026-05-04 18:12 | 49.10697 | 13.09709 | 37951 ft | 457 kts | 318° |
| 2026-05-04 18:13 | 49.15612 | 13.03627 | 37956 ft | 457 kts | 318° |
| 2026-05-04 18:14 | 49.23008 | 12.94444 | 37959 ft | 457 kts | 318° |
| 2026-05-04 18:14 | 49.27934 | 12.88310 | 37966 ft | 457 kts | 317° |
| 2026-05-04 18:15 | 49.37779 | 12.75996 | 37963 ft | 457 kts | 317° |
| 2026-05-04 18:16 | 49.42691 | 12.69827 | 37965 ft | 457 kts | 317° |
| 2026-05-04 18:16 | 49.47594 | 12.63653 | 37967 ft | 457 kts | 317° |
| 2026-05-04 18:17 | 49.54969 | 12.54340 | 37970 ft | 457 kts | 317° |
| 2026-05-04 18:18 | 49.62328 | 12.45000 | 37969 ft | 457 kts | 317° |
| 2026-05-04 18:18 | 49.67232 | 12.38756 | 37972 ft | 457 kts | 317° |
| 2026-05-04 18:19 | 49.74586 | 12.29419 | 37967 ft | 457 kts | 317° |
| 2026-05-04 18:19 | 49.79560 | 12.23278 | 37978 ft | 458 kts | 317° |
| 2026-05-04 18:20 | 49.84528 | 12.17122 | 37990 ft | 458 kts | 317° |
| 2026-05-04 18:20 | 49.89503 | 12.10929 | 37989 ft | 458 kts | 317° |
| 2026-05-04 18:21 | 49.94426 | 12.04779 | 37972 ft | 458 kts | 317° |
| 2026-05-04 18:21 | 49.99421 | 11.98520 | 37974 ft | 458 kts | 317° |
| 2026-05-04 18:22 | 50.04371 | 11.92301 | 38006 ft | 458 kts | 317° |
| 2026-05-04 18:22 | 50.09315 | 11.86075 | 37987 ft | 457 kts | 317° |
| 2026-05-04 18:23 | 50.14255 | 11.79830 | 37986 ft | 457 kts | 317° |
| 2026-05-04 18:23 | 50.19152 | 11.73624 | 37965 ft | 457 kts | 317° |
| 2026-05-04 18:24 | 50.24087 | 11.67353 | 37986 ft | 457 kts | 317° |
| 2026-05-04 18:24 | 50.29019 | 11.61070 | 37987 ft | 457 kts | 317° |
| 2026-05-04 18:25 | 50.33950 | 11.54774 | 37984 ft | 457 kts | 316° |
| 2026-05-04 18:25 | 50.38860 | 11.48483 | 37981 ft | 457 kts | 316° |
| 2026-05-04 18:26 | 50.43779 | 11.42163 | 37979 ft | 457 kts | 316° |
| 2026-05-04 18:26 | 50.48701 | 11.35821 | 37984 ft | 457 kts | 316° |
| 2026-05-04 18:27 | 50.53602 | 11.29490 | 37986 ft | 457 kts | 316° |
| 2026-05-04 18:27 | 50.58477 | 11.23175 | 37983 ft | 457 kts | 316° |
| 2026-05-04 18:28 | 50.63375 | 11.16812 | 37993 ft | 459 kts | 316° |
| 2026-05-04 18:28 | 50.68279 | 11.10426 | 37990 ft | 459 kts | 316° |
| 2026-05-04 18:29 | 50.73203 | 11.03994 | 37994 ft | 459 kts | 316° |
| 2026-05-04 18:29 | 50.78099 | 10.97581 | 38000 ft | 459 kts | 316° |
| 2026-05-04 18:30 | 50.85442 | 10.87929 | 38009 ft | 458 kts | 316° |
| 2026-05-04 18:31 | 50.90350 | 10.81453 | 38011 ft | 460 kts | 316° |
| 2026-05-04 18:31 | 50.94888 | 10.75449 | 38000 ft | 460 kts | 316° |
| 2026-05-04 18:32 | 50.99727 | 10.69030 | 38002 ft | 460 kts | 316° |
| 2026-05-04 18:32 | 51.04621 | 10.62519 | 38001 ft | 460 kts | 316° |
| 2026-05-04 18:33 | 51.09523 | 10.55979 | 37992 ft | 460 kts | 315° |
| 2026-05-04 18:33 | 51.14409 | 10.49440 | 37999 ft | 460 kts | 315° |
| 2026-05-04 18:34 | 51.19261 | 10.42927 | 37998 ft | 461 kts | 315° |
| 2026-05-04 18:34 | 51.24157 | 10.36346 | 37984 ft | 461 kts | 316° |
| 2026-05-04 18:35 | 51.29180 | 10.30216 | 37998 ft | 463 kts | 319° |
| 2026-05-04 18:35 | 51.34454 | 10.24395 | 37960 ft | 469 kts | 329° |
| 2026-05-04 18:35 | 51.37499 | 10.22482 | 37997 ft | 476 kts | 341° |
| 2026-05-04 18:36 | 51.40761 | 10.21547 | 38000 ft | 480 kts | 350° |
| 2026-05-04 18:36 | 51.47385 | 10.20863 | 37995 ft | 482 kts | 353° |
| 2026-05-04 18:37 | 51.53905 | 10.20408 | 37991 ft | 482 kts | 354° |
| 2026-05-04 18:37 | 51.60437 | 10.19906 | 38018 ft | 482 kts | 354° |
| 2026-05-04 18:38 | 51.66993 | 10.19439 | 38004 ft | 482 kts | 354° |
| 2026-05-04 18:38 | 51.73625 | 10.18984 | 37989 ft | 482 kts | 354° |
| 2026-05-04 18:39 | 51.80235 | 10.18535 | 37990 ft | 483 kts | 354° |
| 2026-05-04 18:39 | 51.86892 | 10.18082 | 37992 ft | 482 kts | 354° |
| 2026-05-04 18:40 | 51.93469 | 10.17626 | 37989 ft | 481 kts | 354° |
| 2026-05-04 18:40 | 52.00047 | 10.17167 | 37986 ft | 481 kts | 354° |
| 2026-05-04 18:41 | 52.06645 | 10.16707 | 37982 ft | 481 kts | 354° |
| 2026-05-04 18:41 | 52.13259 | 10.15656 | 37972 ft | 475 kts | 341° |
| 2026-05-04 18:42 | 52.19224 | 10.11517 | 37974 ft | 465 kts | 323° |
| 2026-05-04 18:42 | 52.24173 | 10.04894 | 37983 ft | 459 kts | 313° |
| 2026-05-04 18:43 | 52.28796 | 9.97725 | 37981 ft | 459 kts | 313° |
| 2026-05-04 18:43 | 52.33418 | 9.90576 | 37988 ft | 458 kts | 313° |
| 2026-05-04 18:44 | 52.38052 | 9.83435 | 37988 ft | 456 kts | 313° |
| 2026-05-04 18:44 | 52.42670 | 9.76315 | 37982 ft | 455 kts | 313° |
| 2026-05-04 18:45 | 52.47278 | 9.69194 | 37978 ft | 455 kts | 313° |
| 2026-05-04 18:45 | 52.51874 | 9.62075 | 37981 ft | 455 kts | 313° |
| 2026-05-04 18:46 | 52.56475 | 9.54928 | 37981 ft | 455 kts | 313° |
| 2026-05-04 18:46 | 52.61059 | 9.47785 | 37978 ft | 455 kts | 313° |
| 2026-05-04 18:47 | 52.65633 | 9.40639 | 37976 ft | 455 kts | 312° |
| 2026-05-04 18:47 | 52.70190 | 9.33496 | 37960 ft | 455 kts | 312° |
| 2026-05-04 18:48 | 52.74740 | 9.26341 | 37962 ft | 455 kts | 312° |
| 2026-05-04 18:48 | 52.79313 | 9.19129 | 37963 ft | 455 kts | 312° |
| 2026-05-04 18:49 | 52.83880 | 9.11905 | 37976 ft | 455 kts | 312° |
| 2026-05-04 18:49 | 52.88464 | 9.04630 | 37989 ft | 457 kts | 312° |
| 2026-05-04 18:50 | 52.93048 | 8.97330 | 37999 ft | 457 kts | 312° |
| 2026-05-04 18:50 | 52.97621 | 8.90030 | 38007 ft | 457 kts | 312° |
| 2026-05-04 18:51 | 53.02185 | 8.82724 | 38006 ft | 457 kts | 312° |
| 2026-05-04 18:51 | 53.05954 | 8.76671 | 38006 ft | 457 kts | 312° |
| 2026-05-04 18:52 | 53.11284 | 8.68085 | 38023 ft | 457 kts | 312° |
| 2026-05-04 18:52 | 53.15054 | 8.61991 | 38007 ft | 457 kts | 312° |
| 2026-05-04 18:53 | 53.19619 | 8.54595 | 38001 ft | 457 kts | 312° |
| 2026-05-04 18:53 | 53.24167 | 8.47201 | 37998 ft | 457 kts | 312° |
| 2026-05-04 18:54 | 53.28714 | 8.39785 | 37999 ft | 457 kts | 312° |
| 2026-05-04 18:54 | 53.33240 | 8.32380 | 37999 ft | 457 kts | 312° |
| 2026-05-04 18:55 | 53.37751 | 8.24977 | 38019 ft | 457 kts | 311° |
| 2026-05-04 18:55 | 53.44538 | 8.13793 | 38013 ft | 457 kts | 312° |
| 2026-05-04 18:56 | 53.49059 | 8.06311 | 38024 ft | 456 kts | 312° |
| 2026-05-04 18:56 | 53.53572 | 7.98825 | 38025 ft | 456 kts | 312° |
| 2026-05-04 18:57 | 53.58075 | 7.91331 | 38028 ft | 455 kts | 312° |
| 2026-05-04 18:57 | 53.62546 | 7.83867 | 38033 ft | 455 kts | 311° |
| 2026-05-04 18:58 | 53.66772 | 7.76786 | 38021 ft | 457 kts | 311° |
| 2026-05-04 18:58 | 53.70831 | 7.69967 | 38038 ft | 457 kts | 311° |
| 2026-05-04 18:59 | 53.74826 | 7.63237 | 38024 ft | 457 kts | 311° |
| 2026-05-04 18:59 | 53.78812 | 7.56500 | 38026 ft | 457 kts | 311° |
| 2026-05-04 19:00 | 53.82764 | 7.49807 | 38034 ft | 457 kts | 311° |
| 2026-05-04 19:00 | 53.86586 | 7.43314 | 38023 ft | 457 kts | 311° |
| 2026-05-04 19:01 | 53.90276 | 7.37027 | 38028 ft | 457 kts | 311° |
| 2026-05-04 19:01 | 53.94009 | 7.30649 | 38041 ft | 457 kts | 311° |
| 2026-05-04 19:02 | 53.97854 | 7.24064 | 38035 ft | 457 kts | 311° |
| 2026-05-04 19:02 | 54.02294 | 7.16435 | 38041 ft | 457 kts | 311° |
| 2026-05-04 19:03 | 54.06752 | 7.08750 | 38054 ft | 457 kts | 311° |
| 2026-05-04 19:03 | 54.11210 | 7.01040 | 38042 ft | 457 kts | 311° |
| 2026-05-04 19:04 | 54.15663 | 6.93316 | 38047 ft | 457 kts | 311° |
| 2026-05-04 19:04 | 54.20104 | 6.85584 | 38049 ft | 458 kts | 311° |
| 2026-05-04 19:05 | 54.24500 | 6.77907 | 38047 ft | 459 kts | 311° |
| 2026-05-04 19:05 | 54.28824 | 6.70334 | 38049 ft | 459 kts | 311° |
| 2026-05-04 19:06 | 54.33262 | 6.62533 | 38061 ft | 459 kts | 311° |
| 2026-05-04 19:06 | 54.37693 | 6.54719 | 38050 ft | 458 kts | 311° |
| 2026-05-04 19:07 | 54.42123 | 6.46881 | 38052 ft | 458 kts | 311° |
| 2026-05-04 19:07 | 54.46556 | 6.39009 | 38062 ft | 458 kts | 311° |
| 2026-05-04 19:08 | 54.50989 | 6.31114 | 38054 ft | 458 kts | 311° |
| 2026-05-04 19:08 | 54.55414 | 6.23208 | 38052 ft | 458 kts | 311° |
| 2026-05-04 19:09 | 54.59832 | 6.15287 | 38070 ft | 458 kts | 311° |
| 2026-05-04 19:09 | 54.64092 | 6.07622 | 38051 ft | 457 kts | 311° |
| 2026-05-04 19:10 | 54.68175 | 6.00254 | 38062 ft | 457 kts | 311° |
| 2026-05-04 19:10 | 54.72111 | 5.93129 | 38052 ft | 457 kts | 311° |
| 2026-05-04 19:11 | 54.75748 | 5.86521 | 38056 ft | 458 kts | 311° |
| 2026-05-04 19:11 | 54.79649 | 5.79420 | 38059 ft | 458 kts | 311° |
| 2026-05-04 19:12 | 54.84807 | 5.68446 | 38059 ft | 456 kts | 301° |
| 2026-05-04 19:13 | 54.88089 | 5.59496 | 38070 ft | 455 kts | 300° |
| 2026-05-04 19:13 | 54.91412 | 5.50456 | 38045 ft | 454 kts | 301° |
| 2026-05-04 19:14 | 54.94467 | 5.42203 | 38071 ft | 454 kts | 301° |
| 2026-05-04 19:14 | 54.97307 | 5.34406 | 38070 ft | 453 kts | 299° |
| 2026-05-04 19:15 | 55.00223 | 5.25751 | 38050 ft | 453 kts | 298° |
| 2026-05-04 19:15 | 55.03388 | 5.16268 | 38070 ft | 453 kts | 298° |
| 2026-05-04 19:16 | 55.06529 | 5.06880 | 38052 ft | 453 kts | 298° |
| 2026-05-04 19:16 | 55.09671 | 4.97474 | 38056 ft | 453 kts | 298° |
| 2026-05-04 19:17 | 55.12855 | 4.87994 | 38052 ft | 453 kts | 298° |
| 2026-05-04 19:17 | 55.15966 | 4.78722 | 38068 ft | 453 kts | 298° |
| 2026-05-04 19:18 | 55.19039 | 4.69517 | 38059 ft | 452 kts | 298° |
| 2026-05-04 19:18 | 55.22072 | 4.60387 | 38055 ft | 452 kts | 298° |
| 2026-05-04 19:19 | 55.25129 | 4.51147 | 38052 ft | 452 kts | 298° |
| 2026-05-04 19:19 | 55.28217 | 4.41777 | 38054 ft | 452 kts | 298° |
| 2026-05-04 19:20 | 55.31350 | 4.32232 | 38056 ft | 453 kts | 298° |
| 2026-05-04 19:20 | 55.34511 | 4.22565 | 38055 ft | 453 kts | 298° |
| 2026-05-04 19:21 | 55.37626 | 4.13002 | 38058 ft | 453 kts | 298° |
| 2026-05-04 19:21 | 55.40753 | 4.03363 | 38052 ft | 453 kts | 297° |
| 2026-05-04 19:22 | 55.43856 | 3.93754 | 38052 ft | 453 kts | 297° |
| 2026-05-04 19:22 | 55.46950 | 3.84125 | 38078 ft | 453 kts | 298° |
| 2026-05-04 19:23 | 55.49977 | 3.74672 | 38064 ft | 448 kts | 298° |
| 2026-05-04 19:23 | 55.53084 | 3.65215 | 38056 ft | 448 kts | 299° |
| 2026-05-04 19:24 | 55.56207 | 3.56016 | 38054 ft | 448 kts | 299° |
| 2026-05-04 19:24 | 55.59290 | 3.46877 | 38056 ft | 448 kts | 299° |
| 2026-05-04 19:25 | 55.62371 | 3.37684 | 38057 ft | 448 kts | 299° |
| 2026-05-04 19:25 | 55.65459 | 3.28421 | 38048 ft | 447 kts | 299° |
| 2026-05-04 19:26 | 55.68548 | 3.19113 | 38050 ft | 447 kts | 299° |
| 2026-05-04 19:26 | 55.71632 | 3.09784 | 38047 ft | 447 kts | 298° |
| 2026-05-04 19:27 | 55.74671 | 3.00554 | 38048 ft | 447 kts | 298° |
| 2026-05-04 19:27 | 55.77693 | 2.91348 | 38042 ft | 444 kts | 298° |
| 2026-05-04 19:28 | 55.80667 | 2.82244 | 38041 ft | 443 kts | 298° |
| 2026-05-04 19:28 | 55.83594 | 2.73253 | 38044 ft | 442 kts | 298° |
| 2026-05-04 19:29 | 55.86487 | 2.64329 | 38043 ft | 442 kts | 298° |
| 2026-05-04 19:29 | 55.89356 | 2.55448 | 38038 ft | 442 kts | 298° |
| 2026-05-04 19:30 | 55.92302 | 2.46295 | 38038 ft | 442 kts | 298° |
| 2026-05-04 19:30 | 55.95271 | 2.37036 | 38038 ft | 442 kts | 298° |
| 2026-05-04 19:31 | 55.98191 | 2.27893 | 38033 ft | 442 kts | 298° |
| 2026-05-04 19:31 | 56.01098 | 2.18759 | 38030 ft | 441 kts | 297° |
| 2026-05-04 19:32 | 56.04003 | 2.09595 | 38029 ft | 441 kts | 297° |
| 2026-05-04 19:32 | 56.06873 | 2.00506 | 38033 ft | 441 kts | 297° |
| 2026-05-04 19:33 | 56.09769 | 1.91298 | 38033 ft | 441 kts | 297° |
| 2026-05-04 19:33 | 56.12642 | 1.82131 | 38033 ft | 441 kts | 297° |
| 2026-05-04 19:34 | 56.15500 | 1.72975 | 38033 ft | 441 kts | 297° |
| 2026-05-04 19:34 | 56.18364 | 1.63765 | 38033 ft | 441 kts | 297° |
| 2026-05-04 19:35 | 56.21205 | 1.54593 | 38030 ft | 440 kts | 297° |
| 2026-05-04 19:35 | 56.23981 | 1.45595 | 38030 ft | 440 kts | 297° |
| 2026-05-04 19:36 | 56.26786 | 1.36468 | 38030 ft | 440 kts | 297° |
| 2026-05-04 19:36 | 56.29545 | 1.27459 | 38038 ft | 440 kts | 297° |
| 2026-05-04 19:37 | 56.32333 | 1.18324 | 38027 ft | 438 kts | 297° |
| 2026-05-04 19:37 | 56.35125 | 1.09133 | 38025 ft | 438 kts | 296° |
| 2026-05-04 19:38 | 56.37914 | 0.99917 | 38025 ft | 437 kts | 296° |
| 2026-05-04 19:38 | 56.40704 | 0.90659 | 38025 ft | 437 kts | 296° |
| 2026-05-04 19:39 | 56.43112 | 0.82641 | 38022 ft | 437 kts | 296° |
| 2026-05-04 19:39 | 56.46011 | 0.72955 | 38022 ft | 437 kts | 296° |
| 2026-05-04 19:40 | 56.48897 | 0.63268 | 38023 ft | 437 kts | 296° |
| 2026-05-04 19:40 | 56.51776 | 0.53568 | 38020 ft | 436 kts | 296° |
| 2026-05-04 19:41 | 56.54642 | 0.43873 | 38019 ft | 436 kts | 296° |
| 2026-05-04 19:41 | 56.57498 | 0.34167 | 38054 ft | 436 kts | 296° |
| 2026-05-04 19:42 | 56.60340 | 0.24479 | 38025 ft | 433 kts | 296° |
| 2026-05-04 19:42 | 56.63166 | 0.14794 | 38019 ft | 433 kts | 295° |
| 2026-05-04 19:43 | 56.65975 | 0.05125 | 38011 ft | 433 kts | 295° |
| 2026-05-04 19:43 | 56.68779 | -0.04566 | 38010 ft | 433 kts | 296° |
| 2026-05-04 19:44 | 56.71577 | -0.14276 | 38009 ft | 433 kts | 295° |
| 2026-05-04 19:44 | 56.74353 | -0.23942 | 38014 ft | 433 kts | 295° |
| 2026-05-04 19:45 | 56.77138 | -0.33685 | 38017 ft | 433 kts | 295° |
| 2026-05-04 19:45 | 56.79913 | -0.43434 | 38012 ft | 433 kts | 295° |
| 2026-05-04 19:46 | 56.82680 | -0.53196 | 38013 ft | 433 kts | 295° |
| 2026-05-04 19:46 | 56.85438 | -0.62966 | 38022 ft | 431 kts | 295° |
| 2026-05-04 19:47 | 56.88180 | -0.72720 | 38010 ft | 430 kts | 295° |
| 2026-05-04 19:47 | 56.90909 | -0.82473 | 38009 ft | 430 kts | 295° |
| 2026-05-04 19:48 | 56.93632 | -0.92243 | 38009 ft | 430 kts | 295° |
| 2026-05-04 19:48 | 56.96347 | -1.02026 | 38008 ft | 430 kts | 295° |
| 2026-05-04 19:49 | 56.99053 | -1.11823 | 38008 ft | 430 kts | 295° |
| 2026-05-04 19:49 | 57.01753 | -1.21632 | 38008 ft | 430 kts | 295° |
| 2026-05-04 19:50 | 57.04442 | -1.31445 | 38011 ft | 430 kts | 294° |
| 2026-05-04 19:50 | 57.07122 | -1.41274 | 38009 ft | 430 kts | 294° |
| 2026-05-04 19:51 | 57.09797 | -1.51123 | 38006 ft | 430 kts | 294° |
| 2026-05-04 19:51 | 57.12464 | -1.60988 | 38005 ft | 430 kts | 294° |
| 2026-05-04 19:52 | 57.15120 | -1.70853 | 37998 ft | 430 kts | 294° |
| 2026-05-04 19:52 | 57.17763 | -1.80711 | 38013 ft | 429 kts | 294° |
| 2026-05-04 19:53 | 57.20379 | -1.90513 | 37996 ft | 428 kts | 294° |
| 2026-05-04 19:53 | 57.23006 | -2.00397 | 38015 ft | 428 kts | 294° |
| 2026-05-04 19:54 | 57.25635 | -2.10333 | 37993 ft | 428 kts | 294° |
| 2026-05-04 19:54 | 57.28226 | -2.20167 | 38011 ft | 428 kts | 294° |
| 2026-05-04 19:55 | 57.30823 | -2.30070 | 38015 ft | 428 kts | 294° |
| 2026-05-04 19:55 | 57.33414 | -2.39993 | 37977 ft | 428 kts | 294° |
| 2026-05-04 19:56 | 57.36014 | -2.49997 | 38046 ft | 432 kts | 294° |
| 2026-05-04 19:56 | 57.38620 | -2.60066 | 38023 ft | 434 kts | 294° |
| 2026-05-04 19:57 | 57.41226 | -2.70180 | 38010 ft | 434 kts | 294° |
| 2026-05-04 19:57 | 57.43820 | -2.80292 | 38012 ft | 434 kts | 294° |
| 2026-05-04 19:58 | 57.46409 | -2.90432 | 38017 ft | 434 kts | 294° |
| 2026-05-04 19:58 | 57.48986 | -3.00572 | 38015 ft | 434 kts | 294° |
| 2026-05-04 19:59 | 57.51550 | -3.10712 | 38008 ft | 432 kts | 294° |
| 2026-05-04 19:59 | 57.54103 | -3.20849 | 38013 ft | 432 kts | 293° |
| 2026-05-04 20:00 | 57.56650 | -3.31006 | 38002 ft | 432 kts | 293° |
| 2026-05-04 20:00 | 57.59181 | -3.41151 | 38002 ft | 432 kts | 293° |
| 2026-05-04 20:01 | 57.61711 | -3.51339 | 38024 ft | 432 kts | 293° |
| 2026-05-04 20:01 | 57.64224 | -3.61503 | 38016 ft | 432 kts | 293° |
| 2026-05-04 20:02 | 57.66737 | -3.71728 | 38005 ft | 434 kts | 293° |
| 2026-05-04 20:02 | 57.69232 | -3.81908 | 38010 ft | 434 kts | 293° |
| 2026-05-04 20:03 | 57.71746 | -3.92213 | 38018 ft | 434 kts | 293° |
| 2026-05-04 20:03 | 57.74254 | -4.02547 | 38014 ft | 434 kts | 293° |
| 2026-05-04 20:04 | 57.76726 | -4.12785 | 38010 ft | 434 kts | 293° |
| 2026-05-04 20:04 | 57.79204 | -4.23091 | 38012 ft | 434 kts | 293° |
| 2026-05-04 20:05 | 57.81676 | -4.33424 | 38019 ft | 432 kts | 293° |
| 2026-05-04 20:05 | 57.84122 | -4.43701 | 38018 ft | 431 kts | 293° |
| 2026-05-04 20:06 | 57.86563 | -4.53999 | 38034 ft | 430 kts | 292° |
| 2026-05-04 20:06 | 57.88988 | -4.64284 | 38029 ft | 430 kts | 292° |
| 2026-05-04 20:07 | 57.91402 | -4.74572 | 38023 ft | 430 kts | 292° |
| 2026-05-04 20:07 | 57.93807 | -4.84866 | 38024 ft | 430 kts | 292° |
| 2026-05-04 20:08 | 57.96202 | -4.95168 | 38023 ft | 430 kts | 292° |
| 2026-05-04 20:08 | 57.98596 | -5.05516 | 38032 ft | 430 kts | 292° |
| 2026-05-04 20:09 | 58.00980 | -5.15876 | 38037 ft | 430 kts | 292° |
| 2026-05-04 20:09 | 58.03342 | -5.26186 | 38037 ft | 430 kts | 292° |
| 2026-05-04 20:10 | 58.05653 | -5.36320 | 38032 ft | 430 kts | 292° |
| 2026-05-04 20:10 | 58.07668 | -5.45199 | 38036 ft | 430 kts | 292° |
| 2026-05-04 20:11 | 58.09887 | -5.55022 | 38033 ft | 431 kts | 292° |
| 2026-05-04 20:11 | 58.12189 | -5.65262 | 38038 ft | 432 kts | 292° |
| 2026-05-04 20:12 | 58.14465 | -5.75426 | 38044 ft | 432 kts | 292° |
| 2026-05-04 20:12 | 58.16623 | -5.85111 | 38040 ft | 432 kts | 292° |
| 2026-05-04 20:13 | 58.18880 | -5.95289 | 38041 ft | 432 kts | 292° |
| 2026-05-04 20:13 | 58.21200 | -6.05808 | 38039 ft | 432 kts | 291° |
| 2026-05-04 20:14 | 58.23513 | -6.16342 | 38032 ft | 432 kts | 291° |
| 2026-05-04 20:14 | 58.25817 | -6.26901 | 38031 ft | 432 kts | 291° |
| 2026-05-04 20:15 | 58.28117 | -6.37484 | 38035 ft | 432 kts | 291° |
| 2026-05-04 20:15 | 58.30405 | -6.48066 | 38037 ft | 432 kts | 291° |
| 2026-05-04 20:16 | 58.32684 | -6.58659 | 38058 ft | 432 kts | 291° |
| 2026-05-04 20:16 | 58.34951 | -6.69252 | 38049 ft | 432 kts | 291° |
| 2026-05-04 20:17 | 58.37195 | -6.79793 | 38048 ft | 432 kts | 291° |
| 2026-05-04 20:17 | 58.39442 | -6.90406 | 38048 ft | 432 kts | 291° |
| 2026-05-04 20:18 | 58.41685 | -7.01048 | 38050 ft | 432 kts | 291° |
| 2026-05-04 20:18 | 58.43914 | -7.11685 | 38053 ft | 431 kts | 291° |
| 2026-05-04 20:19 | 58.46137 | -7.22347 | 38053 ft | 431 kts | 291° |
| 2026-05-04 20:19 | 58.48344 | -7.32990 | 38053 ft | 432 kts | 291° |
| 2026-05-04 20:20 | 58.50550 | -7.43682 | 38050 ft | 432 kts | 291° |
| 2026-05-04 20:20 | 58.52748 | -7.54392 | 38043 ft | 431 kts | 291° |
| 2026-05-04 20:21 | 58.54934 | -7.65102 | 38057 ft | 431 kts | 291° |
| 2026-05-04 20:21 | 58.58196 | -7.81184 | 38059 ft | 431 kts | 290° |
| 2026-05-04 20:22 | 58.60345 | -7.91854 | 38060 ft | 431 kts | 290° |
| 2026-05-04 20:22 | 58.62514 | -8.02679 | 38058 ft | 431 kts | 290° |
| 2026-05-04 20:23 | 58.64644 | -8.13373 | 38065 ft | 431 kts | 290° |
| 2026-05-04 20:23 | 58.66781 | -8.24159 | 38058 ft | 431 kts | 290° |
| 2026-05-04 20:24 | 58.68907 | -8.34945 | 38071 ft | 431 kts | 290° |
| 2026-05-04 20:24 | 58.71026 | -8.45751 | 38070 ft | 431 kts | 290° |
| 2026-05-04 20:25 | 58.73138 | -8.56583 | 38072 ft | 431 kts | 290° |
| 2026-05-04 20:25 | 58.75239 | -8.67421 | 38097 ft | 431 kts | 290° |
| 2026-05-04 20:26 | 58.77327 | -8.78253 | 38079 ft | 431 kts | 290° |
| 2026-05-04 20:26 | 58.79406 | -8.89100 | 38067 ft | 431 kts | 290° |
| 2026-05-04 20:27 | 58.81480 | -8.99980 | 38077 ft | 431 kts | 290° |
| 2026-05-04 20:27 | 58.83541 | -9.10846 | 38080 ft | 431 kts | 290° |
| 2026-05-04 20:28 | 58.85590 | -9.21715 | 38077 ft | 431 kts | 290° |
| 2026-05-04 20:28 | 58.87625 | -9.32570 | 38080 ft | 431 kts | 290° |
| 2026-05-04 20:29 | 58.89308 | -9.41600 | 38081 ft | 431 kts | 289° |
| 2026-05-04 20:29 | 58.91330 | -9.52504 | 38083 ft | 431 kts | 289° |
| 2026-05-04 20:30 | 58.93668 | -9.65197 | 38077 ft | 432 kts | 289° |
| 2026-05-04 20:30 | 58.95345 | -9.74348 | 38114 ft | 432 kts | 289° |
| 2026-05-04 20:31 | 58.97313 | -9.85163 | 38090 ft | 431 kts | 289° |
| 2026-05-04 20:31 | 58.99300 | -9.96011 | 38077 ft | 431 kts | 291° |
| 2026-05-04 20:32 | 59.01670 | -10.06625 | 38088 ft | 431 kts | 295° |
| 2026-05-04 20:32 | 59.04256 | -10.16965 | 38088 ft | 431 kts | 295° |
| 2026-05-04 20:33 | 59.06841 | -10.27294 | 38077 ft | 431 kts | 295° |
| 2026-05-04 20:33 | 59.09435 | -10.37723 | 38086 ft | 431 kts | 295° |
| 2026-05-04 20:34 | 59.12024 | -10.48188 | 38085 ft | 431 kts | 295° |
| 2026-05-04 20:34 | 59.14604 | -10.58666 | 38093 ft | 431 kts | 295° |
| 2026-05-04 20:35 | 59.17174 | -10.69160 | 38103 ft | 431 kts | 295° |
| 2026-05-04 20:35 | 59.19714 | -10.79582 | 38091 ft | 430 kts | 295° |
| 2026-05-04 20:36 | 59.22258 | -10.90066 | 38098 ft | 430 kts | 295° |
| 2026-05-04 20:36 | 59.24788 | -11.00546 | 38076 ft | 430 kts | 295° |
| 2026-05-04 20:37 | 59.27323 | -11.11097 | 38093 ft | 430 kts | 295° |
| 2026-05-04 20:37 | 59.29846 | -11.21650 | 38102 ft | 430 kts | 295° |
| 2026-05-04 20:38 | 59.32353 | -11.32182 | 38099 ft | 430 kts | 295° |
| 2026-05-04 20:38 | 59.34848 | -11.42722 | 38110 ft | 430 kts | 295° |
| 2026-05-04 20:39 | 59.37239 | -11.52867 | 38108 ft | 430 kts | 295° |
| 2026-05-04 20:39 | 59.39666 | -11.63220 | 38120 ft | 429 kts | 295° |
| 2026-05-04 20:40 | 59.42083 | -11.73573 | 38101 ft | 429 kts | 295° |
| 2026-05-04 20:40 | 59.44544 | -11.84172 | 38112 ft | 430 kts | 295° |
| 2026-05-04 20:41 | 59.47015 | -11.94858 | 38114 ft | 430 kts | 294° |
| 2026-05-04 20:41 | 59.49471 | -12.05536 | 38121 ft | 430 kts | 294° |
| 2026-05-04 20:42 | 59.51876 | -12.16046 | 38124 ft | 429 kts | 294° |
| 2026-05-04 20:42 | 59.54258 | -12.26510 | 38126 ft | 429 kts | 294° |
| 2026-05-04 20:43 | 59.56651 | -12.37070 | 38133 ft | 429 kts | 294° |
| 2026-05-04 20:43 | 59.59055 | -12.47734 | 38305 ft | 434 kts | 294° |
| 2026-05-04 20:44 | 59.60259 | -12.53100 | 38556 ft | 433 kts | 294° |
| 2026-05-04 20:44 | 59.61445 | -12.58392 | 38783 ft | 432 kts | 294° |
| 2026-05-04 20:44 | 59.62619 | -12.63647 | 38931 ft | 433 kts | 294° |
| 2026-05-04 20:44 | 59.63800 | -12.68939 | 39070 ft | 433 kts | 294° |
| 2026-05-04 20:45 | 59.64979 | -12.74241 | 39195 ft | 434 kts | 294° |
| 2026-05-04 20:45 | 59.66153 | -12.79535 | 39308 ft | 434 kts | 294° |
| 2026-05-04 20:45 | 59.67338 | -12.84891 | 39441 ft | 435 kts | 294° |
| 2026-05-04 20:45 | 59.68516 | -12.90226 | 39546 ft | 435 kts | 294° |
| 2026-05-04 20:46 | 59.69693 | -12.95575 | 39683 ft | 435 kts | 294° |
| 2026-05-04 20:46 | 59.70884 | -13.00999 | 39792 ft | 436 kts | 294° |
| 2026-05-04 20:46 | 59.72074 | -13.06436 | 39907 ft | 436 kts | 294° |
| 2026-05-04 20:46 | 59.73245 | -13.11797 | 40020 ft | 436 kts | 294° |
| 2026-05-04 20:47 | 59.75638 | -13.22795 | 40140 ft | 437 kts | 294° |
| 2026-05-04 20:47 | 59.78029 | -13.33844 | 40151 ft | 438 kts | 293° |
| 2026-05-04 20:48 | 59.80420 | -13.44949 | 40163 ft | 437 kts | 293° |
| 2026-05-04 20:48 | 59.82780 | -13.55971 | 40148 ft | 436 kts | 293° |
| 2026-05-04 20:49 | 59.85074 | -13.66742 | 40150 ft | 436 kts | 293° |
| 2026-05-04 20:49 | 59.87432 | -13.77872 | 40164 ft | 436 kts | 293° |
| 2026-05-04 20:50 | 59.89779 | -13.89009 | 40163 ft | 436 kts | 293° |
| 2026-05-04 20:50 | 59.92120 | -14.00180 | 40157 ft | 436 kts | 293° |
| 2026-05-04 20:51 | 59.94452 | -14.11366 | 40170 ft | 436 kts | 293° |
| 2026-05-04 20:51 | 59.96772 | -14.22560 | 40175 ft | 436 kts | 293° |
| 2026-05-04 20:52 | 59.99078 | -14.33748 | 40174 ft | 435 kts | 292° |
| 2026-05-04 20:52 | 60.01360 | -14.44878 | 40168 ft | 435 kts | 292° |
| 2026-05-04 20:53 | 60.03664 | -14.56175 | 40173 ft | 435 kts | 292° |
| 2026-05-04 20:53 | 60.05937 | -14.67383 | 40172 ft | 435 kts | 292° |
| 2026-05-04 20:54 | 60.08187 | -14.78543 | 40162 ft | 435 kts | 292° |
| 2026-05-04 20:54 | 60.10461 | -14.89883 | 40176 ft | 435 kts | 292° |
| 2026-05-04 20:55 | 60.12705 | -15.01136 | 40175 ft | 435 kts | 292° |
| 2026-05-04 20:55 | 60.14943 | -15.12419 | 40181 ft | 435 kts | 292° |
| 2026-05-04 20:56 | 60.17158 | -15.23654 | 40197 ft | 435 kts | 292° |
| 2026-05-04 20:56 | 60.19369 | -15.34936 | 40186 ft | 434 kts | 292° |
| 2026-05-04 20:57 | 60.21569 | -15.46221 | 40185 ft | 433 kts | 292° |
| 2026-05-04 20:57 | 60.23762 | -15.57533 | 40164 ft | 434 kts | 292° |
| 2026-05-04 20:58 | 60.25949 | -15.68881 | 40178 ft | 434 kts | 292° |
| 2026-05-04 20:58 | 60.28127 | -15.80249 | 40185 ft | 434 kts | 291° |
| 2026-05-04 20:59 | 60.30287 | -15.91584 | 40185 ft | 434 kts | 291° |
| 2026-05-04 20:59 | 60.32441 | -16.02960 | 40188 ft | 434 kts | 291° |
| 2026-05-04 21:00 | 60.34588 | -16.14364 | 40201 ft | 434 kts | 291° |
| 2026-05-04 21:00 | 60.36716 | -16.25735 | 40204 ft | 432 kts | 291° |
| 2026-05-04 21:01 | 60.38835 | -16.37115 | 40183 ft | 432 kts | 291° |
| 2026-05-04 21:01 | 60.40948 | -16.48537 | 40195 ft | 433 kts | 291° |
| 2026-05-04 21:02 | 60.43049 | -16.59961 | 40202 ft | 433 kts | 291° |
| 2026-05-04 21:02 | 60.45143 | -16.71414 | 40208 ft | 433 kts | 291° |
| 2026-05-04 21:03 | 60.47227 | -16.82886 | 40209 ft | 433 kts | 291° |
| 2026-05-04 21:03 | 60.49299 | -16.94358 | 40207 ft | 433 kts | 291° |
| 2026-05-04 21:04 | 60.51364 | -17.05858 | 40224 ft | 433 kts | 291° |
| 2026-05-04 21:04 | 60.53411 | -17.17329 | 40201 ft | 433 kts | 290° |
| 2026-05-04 21:05 | 60.55460 | -17.28877 | 40224 ft | 434 kts | 290° |
| 2026-05-04 21:05 | 60.57502 | -17.40462 | 40231 ft | 434 kts | 290° |
| 2026-05-04 21:06 | 60.59532 | -17.52049 | 40236 ft | 434 kts | 290° |
| 2026-05-04 21:06 | 60.61539 | -17.63580 | 40238 ft | 434 kts | 290° |
| 2026-05-04 21:07 | 60.63563 | -17.75274 | 40239 ft | 434 kts | 290° |
| 2026-05-04 21:07 | 60.65550 | -17.86831 | 40242 ft | 434 kts | 290° |
| 2026-05-04 21:08 | 60.67541 | -17.98483 | 40231 ft | 434 kts | 290° |
| 2026-05-04 21:08 | 60.69525 | -18.10169 | 40254 ft | 436 kts | 290° |
| 2026-05-04 21:09 | 60.71499 | -18.21872 | 40256 ft | 435 kts | 290° |
| 2026-05-04 21:09 | 60.73461 | -18.33576 | 40262 ft | 435 kts | 289° |
| 2026-05-04 21:10 | 60.75410 | -18.45282 | 40262 ft | 435 kts | 289° |
| 2026-05-04 21:10 | 60.77350 | -18.57005 | 40263 ft | 434 kts | 289° |
| 2026-05-04 21:11 | 60.79280 | -18.68746 | 40273 ft | 434 kts | 289° |
| 2026-05-04 21:11 | 60.81201 | -18.80503 | 40242 ft | 434 kts | 289° |
| 2026-05-04 21:12 | 60.83112 | -18.92281 | 40263 ft | 436 kts | 289° |
| 2026-05-04 21:12 | 60.85016 | -19.04094 | 40276 ft | 436 kts | 289° |
| 2026-05-04 21:13 | 60.86913 | -19.15949 | 40296 ft | 436 kts | 289° |
| 2026-05-04 21:13 | 60.88478 | -19.25783 | 40284 ft | 435 kts | 289° |
| 2026-05-04 21:14 | 60.90350 | -19.37622 | 40284 ft | 435 kts | 289° |
| 2026-05-04 21:14 | 60.92511 | -19.51392 | 40283 ft | 435 kts | 289° |
| 2026-05-04 21:15 | 60.94358 | -19.63247 | 40268 ft | 435 kts | 288° |
| 2026-05-04 21:15 | 60.95899 | -19.73207 | 40283 ft | 436 kts | 288° |
| 2026-05-04 21:16 | 60.97728 | -19.85110 | 40292 ft | 437 kts | 288° |
| 2026-05-04 21:16 | 60.99552 | -19.97073 | 40295 ft | 437 kts | 288° |
| 2026-05-04 21:17 | 61.01307 | -20.09083 | 40298 ft | 437 kts | 287° |
| 2026-05-04 21:17 | 61.02984 | -20.21138 | 40304 ft | 436 kts | 287° |
| 2026-05-04 21:18 | 61.04649 | -20.33187 | 40303 ft | 436 kts | 287° |
| 2026-05-04 21:18 | 61.06306 | -20.45255 | 40302 ft | 436 kts | 287° |
| 2026-05-04 21:19 | 61.07955 | -20.57343 | 40294 ft | 437 kts | 287° |
| 2026-05-04 21:19 | 61.09585 | -20.69381 | 40304 ft | 437 kts | 287° |
| 2026-05-04 21:20 | 61.11217 | -20.81522 | 40306 ft | 438 kts | 286° |
| 2026-05-04 21:20 | 61.12837 | -20.93670 | 40306 ft | 438 kts | 286° |
| 2026-05-04 21:21 | 61.14448 | -21.05845 | 40311 ft | 438 kts | 286° |
| 2026-05-04 21:21 | 61.16046 | -21.18011 | 40312 ft | 438 kts | 286° |
| 2026-05-04 21:22 | 61.17634 | -21.30203 | 40317 ft | 437 kts | 286° |
| 2026-05-04 21:22 | 61.19213 | -21.42414 | 40302 ft | 439 kts | 286° |
| 2026-05-04 21:23 | 61.20784 | -21.54672 | 40310 ft | 439 kts | 286° |
| 2026-05-04 21:23 | 61.22342 | -21.66925 | 40316 ft | 439 kts | 285° |
| 2026-05-04 21:24 | 61.23893 | -21.79213 | 40314 ft | 439 kts | 285° |
| 2026-05-04 21:24 | 61.25431 | -21.91507 | 40313 ft | 439 kts | 285° |
| 2026-05-04 21:25 | 61.26957 | -22.03803 | 40319 ft | 439 kts | 285° |
| 2026-05-04 21:25 | 61.28473 | -22.16124 | 40316 ft | 439 kts | 285° |
| 2026-05-04 21:26 | 61.29977 | -22.28443 | 40335 ft | 439 kts | 285° |
| 2026-05-04 21:26 | 61.31475 | -22.40821 | 40327 ft | 439 kts | 285° |
| 2026-05-04 21:27 | 61.32955 | -22.53159 | 40326 ft | 439 kts | 285° |
| 2026-05-04 21:27 | 61.34424 | -22.65498 | 40326 ft | 439 kts | 285° |
| 2026-05-04 21:28 | 61.35885 | -22.77879 | 40324 ft | 439 kts | 285° |
| 2026-05-04 21:28 | 61.37331 | -22.90249 | 40322 ft | 439 kts | 284° |
| 2026-05-04 21:29 | 61.38767 | -23.02637 | 40307 ft | 439 kts | 284° |
| 2026-05-04 21:29 | 61.40184 | -23.14959 | 40319 ft | 439 kts | 284° |
| 2026-05-04 21:30 | 61.41599 | -23.27389 | 40321 ft | 439 kts | 284° |
| 2026-05-04 21:30 | 61.43004 | -23.39830 | 40339 ft | 439 kts | 284° |
| 2026-05-04 21:31 | 61.45089 | -23.58502 | 40328 ft | 439 kts | 284° |
| 2026-05-04 21:32 | 61.46464 | -23.70965 | 40325 ft | 439 kts | 284° |
| 2026-05-04 21:32 | 61.47827 | -23.83430 | 40324 ft | 439 kts | 284° |
| 2026-05-04 21:33 | 61.49181 | -23.95920 | 40316 ft | 440 kts | 284° |
| 2026-05-04 21:33 | 61.50525 | -24.08441 | 40323 ft | 440 kts | 284° |
| 2026-05-04 21:34 | 61.51856 | -24.20967 | 40323 ft | 440 kts | 283° |
| 2026-05-04 21:34 | 61.53176 | -24.33499 | 40325 ft | 440 kts | 283° |
| 2026-05-04 21:35 | 61.54486 | -24.46050 | 40341 ft | 440 kts | 283° |
| 2026-05-04 21:35 | 61.55784 | -24.58613 | 40329 ft | 440 kts | 283° |
| 2026-05-04 21:36 | 61.57069 | -24.71179 | 40324 ft | 440 kts | 283° |
| 2026-05-04 21:36 | 61.58343 | -24.83751 | 40312 ft | 440 kts | 283° |
| 2026-05-04 21:37 | 61.59605 | -24.96336 | 40319 ft | 440 kts | 283° |
| 2026-05-04 21:37 | 61.60858 | -25.08953 | 40320 ft | 440 kts | 283° |
| 2026-05-04 21:38 | 61.62099 | -25.21580 | 40324 ft | 440 kts | 283° |
| 2026-05-04 21:38 | 61.63328 | -25.34206 | 40321 ft | 440 kts | 283° |
| 2026-05-04 21:39 | 61.64544 | -25.46835 | 40318 ft | 440 kts | 282° |
| 2026-05-04 21:39 | 61.65751 | -25.59490 | 40331 ft | 440 kts | 282° |
| 2026-05-04 21:40 | 61.66946 | -25.72160 | 40314 ft | 441 kts | 282° |
| 2026-05-04 21:40 | 61.68121 | -25.84757 | 40311 ft | 441 kts | 282° |
| 2026-05-04 21:41 | 61.69302 | -25.97551 | 40315 ft | 441 kts | 282° |
| 2026-05-04 21:41 | 61.70455 | -26.10171 | 40316 ft | 441 kts | 282° |
| 2026-05-04 21:42 | 61.71604 | -26.22889 | 40317 ft | 441 kts | 282° |
| 2026-05-04 21:42 | 61.72741 | -26.35616 | 40317 ft | 441 kts | 282° |
| 2026-05-04 21:43 | 61.73867 | -26.48364 | 40311 ft | 441 kts | 282° |
| 2026-05-04 21:43 | 61.74980 | -26.61107 | 40309 ft | 441 kts | 282° |
| 2026-05-04 21:44 | 61.76083 | -26.73885 | 40320 ft | 441 kts | 281° |
| 2026-05-04 21:44 | 61.77174 | -26.86655 | 40323 ft | 441 kts | 281° |
| 2026-05-04 21:45 | 61.78253 | -26.99448 | 40323 ft | 441 kts | 281° |
| 2026-05-04 21:45 | 61.79320 | -27.12243 | 40318 ft | 441 kts | 281° |
| 2026-05-04 21:46 | 61.80374 | -27.25025 | 40321 ft | 441 kts | 281° |
| 2026-05-04 21:46 | 61.81417 | -27.37841 | 40324 ft | 441 kts | 281° |
| 2026-05-04 21:47 | 61.82449 | -27.50680 | 40306 ft | 441 kts | 281° |
| 2026-05-04 21:47 | 61.83468 | -27.63504 | 40324 ft | 442 kts | 281° |
| 2026-05-04 21:48 | 61.84477 | -27.76352 | 40318 ft | 442 kts | 281° |
| 2026-05-04 21:48 | 61.85472 | -27.89200 | 40319 ft | 442 kts | 281° |
| 2026-05-04 21:49 | 61.86456 | -28.02059 | 40325 ft | 442 kts | 281° |
| 2026-05-04 21:49 | 61.87429 | -28.14943 | 40323 ft | 442 kts | 280° |
| 2026-05-04 21:50 | 61.88388 | -28.27810 | 40324 ft | 442 kts | 280° |
| 2026-05-04 21:50 | 61.89335 | -28.40702 | 40315 ft | 442 kts | 280° |
| 2026-05-04 21:51 | 61.90271 | -28.53603 | 40323 ft | 442 kts | 280° |
| 2026-05-04 21:51 | 61.91195 | -28.66496 | 40322 ft | 442 kts | 280° |
| 2026-05-04 21:52 | 61.92101 | -28.79336 | 40320 ft | 442 kts | 280° |
| 2026-05-04 21:52 | 61.93000 | -28.92254 | 40331 ft | 442 kts | 280° |
| 2026-05-04 21:53 | 61.93894 | -29.05282 | 40324 ft | 442 kts | 280° |
| 2026-05-04 21:53 | 61.94765 | -29.18164 | 40320 ft | 442 kts | 280° |
| 2026-05-04 21:54 | 61.95628 | -29.31121 | 40311 ft | 442 kts | 280° |
| 2026-05-04 21:54 | 61.96480 | -29.44090 | 40320 ft | 442 kts | 279° |
| 2026-05-04 21:55 | 61.97320 | -29.57079 | 40322 ft | 442 kts | 279° |
| 2026-05-04 21:55 | 61.98145 | -29.70051 | 40322 ft | 442 kts | 279° |
| 2026-05-04 21:56 | 61.98957 | -29.83053 | 40319 ft | 442 kts | 279° |
| 2026-05-04 21:56 | 61.99757 | -29.96057 | 40320 ft | 443 kts | 279° |
| 2026-05-04 21:57 | 62.00338 | -30.09088 | 40337 ft | 443 kts | 276° |
| 2026-05-04 21:57 | 62.00802 | -30.22203 | 40315 ft | 443 kts | 277° |
| 2026-05-04 21:58 | 62.01252 | -30.35297 | 40316 ft | 443 kts | 276° |
| 2026-05-04 21:58 | 62.01687 | -30.48371 | 40317 ft | 443 kts | 276° |
| 2026-05-04 21:59 | 62.02110 | -30.61480 | 40317 ft | 443 kts | 276° |
| 2026-05-04 21:59 | 62.02520 | -30.74579 | 40317 ft | 443 kts | 276° |
| 2026-05-04 22:00 | 62.02918 | -30.87673 | 40317 ft | 443 kts | 276° |
| 2026-05-04 22:00 | 62.03303 | -31.00799 | 40319 ft | 443 kts | 276° |
| 2026-05-04 22:01 | 62.03676 | -31.13904 | 40319 ft | 443 kts | 276° |
| 2026-05-04 22:01 | 62.03977 | -31.24817 | 40312 ft | 443 kts | 276° |
| 2026-05-04 22:02 | 62.04327 | -31.37939 | 40321 ft | 443 kts | 276° |
| 2026-05-04 22:02 | 62.04665 | -31.51087 | 40311 ft | 443 kts | 276° |
| 2026-05-04 22:03 | 62.04991 | -31.64233 | 40309 ft | 443 kts | 275° |
| 2026-05-04 22:03 | 62.05304 | -31.77390 | 40309 ft | 443 kts | 275° |
| 2026-05-04 22:04 | 62.05604 | -31.90542 | 40286 ft | 443 kts | 275° |
| 2026-05-04 22:04 | 62.05892 | -32.03670 | 40302 ft | 442 kts | 275° |
| 2026-05-04 22:05 | 62.06167 | -32.16789 | 40303 ft | 442 kts | 275° |
| 2026-05-04 22:05 | 62.06430 | -32.29929 | 40301 ft | 442 kts | 275° |
| 2026-05-04 22:06 | 62.06680 | -32.43043 | 40297 ft | 442 kts | 275° |
| 2026-05-04 22:06 | 62.06918 | -32.56180 | 40298 ft | 442 kts | 275° |
| 2026-05-04 22:07 | 62.07142 | -32.69218 | 40300 ft | 442 kts | 275° |
| 2026-05-04 22:07 | 62.07354 | -32.82362 | 40282 ft | 442 kts | 275° |
| 2026-05-04 22:08 | 62.07555 | -32.95483 | 40292 ft | 442 kts | 275° |
| 2026-05-04 22:08 | 62.07743 | -33.08612 | 40295 ft | 442 kts | 275° |
| 2026-05-04 22:09 | 62.07918 | -33.21751 | 40295 ft | 442 kts | 274° |
| 2026-05-04 22:09 | 62.08081 | -33.34893 | 40290 ft | 442 kts | 274° |
| 2026-05-04 22:10 | 62.08232 | -33.48027 | 40290 ft | 442 kts | 274° |
| 2026-05-04 22:10 | 62.08370 | -33.61188 | 40290 ft | 442 kts | 274° |
| 2026-05-04 22:11 | 62.08496 | -33.74315 | 40277 ft | 442 kts | 274° |
| 2026-05-04 22:11 | 62.08608 | -33.87461 | 40296 ft | 442 kts | 274° |
| 2026-05-04 22:12 | 62.08708 | -34.00595 | 40283 ft | 442 kts | 274° |
| 2026-05-04 22:12 | 62.08797 | -34.13712 | 40282 ft | 442 kts | 274° |
| 2026-05-04 22:13 | 62.08872 | -34.26757 | 40282 ft | 442 kts | 274° |
| 2026-05-04 22:13 | 62.08935 | -34.39888 | 40276 ft | 442 kts | 274° |
| 2026-05-04 22:14 | 62.08986 | -34.53001 | 40256 ft | 441 kts | 274° |
| 2026-05-04 22:14 | 62.09024 | -34.66110 | 40270 ft | 441 kts | 273° |
| 2026-05-04 22:15 | 62.09050 | -34.79225 | 40270 ft | 441 kts | 273° |
| 2026-05-04 22:15 | 62.09064 | -34.92332 | 40269 ft | 441 kts | 273° |
| 2026-05-04 22:16 | 62.09065 | -35.05435 | 40269 ft | 441 kts | 273° |
| 2026-05-04 22:16 | 62.09054 | -35.18529 | 40268 ft | 440 kts | 273° |
| 2026-05-04 22:17 | 62.09030 | -35.31587 | 40269 ft | 439 kts | 273° |
| 2026-05-04 22:17 | 62.08994 | -35.44662 | 40252 ft | 439 kts | 273° |
| 2026-05-04 22:18 | 62.08946 | -35.57700 | 40258 ft | 439 kts | 272° |
| 2026-05-04 22:18 | 62.08886 | -35.70724 | 40261 ft | 439 kts | 272° |
| 2026-05-04 22:19 | 62.08813 | -35.83769 | 40259 ft | 439 kts | 272° |
| 2026-05-04 22:19 | 62.08728 | -35.96795 | 40259 ft | 439 kts | 272° |
| 2026-05-04 22:20 | 62.08631 | -36.09849 | 40261 ft | 439 kts | 272° |
| 2026-05-04 22:20 | 62.08521 | -36.22885 | 40259 ft | 439 kts | 272° |
| 2026-05-04 22:21 | 62.08401 | -36.35891 | 40246 ft | 438 kts | 272° |
| 2026-05-04 22:21 | 62.08267 | -36.48882 | 40253 ft | 437 kts | 272° |
| 2026-05-04 22:22 | 62.08121 | -36.61869 | 40253 ft | 437 kts | 271° |
| 2026-05-04 22:22 | 62.07962 | -36.74868 | 40258 ft | 437 kts | 271° |
| 2026-05-04 22:23 | 62.07792 | -36.87860 | 40255 ft | 437 kts | 271° |
| 2026-05-04 22:23 | 62.07610 | -37.00832 | 40267 ft | 437 kts | 271° |
| 2026-05-04 22:24 | 62.07415 | -37.13829 | 40229 ft | 437 kts | 271° |
| 2026-05-04 22:24 | 62.07209 | -37.26791 | 40256 ft | 438 kts | 271° |
| 2026-05-04 22:25 | 62.06990 | -37.39784 | 40262 ft | 438 kts | 271° |
| 2026-05-04 22:25 | 62.06758 | -37.52783 | 40260 ft | 438 kts | 271° |
| 2026-05-04 22:26 | 62.06515 | -37.65780 | 40276 ft | 438 kts | 271° |
| 2026-05-04 22:26 | 62.06261 | -37.78668 | 40270 ft | 438 kts | 270° |
| 2026-05-04 22:27 | 62.05993 | -37.91667 | 40268 ft | 438 kts | 270° |
| 2026-05-04 22:27 | 62.05714 | -38.04593 | 40239 ft | 437 kts | 270° |
| 2026-05-04 22:28 | 62.05421 | -38.17587 | 40262 ft | 437 kts | 270° |
| 2026-05-04 22:28 | 62.05117 | -38.30543 | 40266 ft | 437 kts | 270° |
| 2026-05-04 22:29 | 62.04801 | -38.43517 | 40270 ft | 437 kts | 270° |
| 2026-05-04 22:29 | 62.04472 | -38.56480 | 40273 ft | 437 kts | 270° |
| 2026-05-04 22:30 | 62.04131 | -38.69457 | 40275 ft | 438 kts | 270° |
| 2026-05-04 22:30 | 62.03778 | -38.82424 | 40275 ft | 438 kts | 270° |
| 2026-05-04 22:31 | 62.03413 | -38.95424 | 40267 ft | 438 kts | 270° |
| 2026-05-04 22:31 | 62.03034 | -39.08382 | 40274 ft | 438 kts | 269° |
| 2026-05-04 22:32 | 62.02644 | -39.21343 | 40281 ft | 438 kts | 269° |
| 2026-05-04 22:32 | 62.02241 | -39.34301 | 40278 ft | 438 kts | 269° |
| 2026-05-04 22:33 | 62.01826 | -39.47261 | 40290 ft | 438 kts | 269° |
| 2026-05-04 22:33 | 62.01398 | -39.60221 | 40291 ft | 438 kts | 269° |
| 2026-05-04 22:34 | 62.00957 | -39.73153 | 40286 ft | 438 kts | 269° |
| 2026-05-04 22:34 | 62.00502 | -39.86100 | 40288 ft | 438 kts | 269° |
| 2026-05-04 22:35 | 62.00028 | -39.98969 | 40308 ft | 438 kts | 268° |
| 2026-05-04 22:35 | 61.99283 | -40.11863 | 40305 ft | 439 kts | 266° |
| 2026-05-04 22:36 | 61.98484 | -40.24763 | 40304 ft | 440 kts | 266° |
| 2026-05-04 22:36 | 61.97668 | -40.37679 | 40314 ft | 440 kts | 265° |
| 2026-05-04 22:37 | 61.96838 | -40.50588 | 40322 ft | 440 kts | 265° |
| 2026-05-04 22:37 | 61.95998 | -40.63464 | 40298 ft | 440 kts | 265° |
| 2026-05-04 22:38 | 61.95142 | -40.76387 | 40326 ft | 441 kts | 265° |
| 2026-05-04 22:38 | 61.94272 | -40.89314 | 40327 ft | 442 kts | 265° |
| 2026-05-04 22:39 | 61.93389 | -41.02255 | 40334 ft | 442 kts | 265° |
| 2026-05-04 22:39 | 61.92494 | -41.15176 | 40332 ft | 442 kts | 265° |
| 2026-05-04 22:40 | 61.91586 | -41.28105 | 40342 ft | 442 kts | 265° |
| 2026-05-04 22:40 | 61.90667 | -41.41010 | 40340 ft | 442 kts | 265° |
| 2026-05-04 22:41 | 61.89736 | -41.53911 | 40337 ft | 440 kts | 264° |
| 2026-05-04 22:41 | 61.88798 | -41.66733 | 40354 ft | 439 kts | 264° |
| 2026-05-04 22:42 | 61.87849 | -41.79543 | 40354 ft | 439 kts | 264° |
| 2026-05-04 22:42 | 61.86887 | -41.92356 | 40357 ft | 439 kts | 264° |
| 2026-05-04 22:43 | 61.85913 | -42.05152 | 40361 ft | 439 kts | 264° |
| 2026-05-04 22:43 | 61.84927 | -42.17957 | 40362 ft | 440 kts | 264° |
| 2026-05-04 22:44 | 61.83931 | -42.30739 | 40355 ft | 439 kts | 264° |
| 2026-05-04 22:44 | 61.82928 | -42.43445 | 40364 ft | 437 kts | 263° |
| 2026-05-04 22:45 | 61.81912 | -42.56130 | 40366 ft | 437 kts | 263° |
| 2026-05-04 22:45 | 61.80367 | -42.75144 | 40366 ft | 437 kts | 263° |
| 2026-05-04 22:46 | 61.79327 | -42.87781 | 40373 ft | 436 kts | 263° |
| 2026-05-04 22:46 | 61.78277 | -43.00370 | 40357 ft | 435 kts | 263° |
| 2026-05-04 22:47 | 61.77395 | -43.10836 | 40331 ft | 434 kts | 262° |
| 2026-05-04 22:47 | 61.76332 | -43.23364 | 40343 ft | 432 kts | 262° |
| 2026-05-04 22:48 | 61.75254 | -43.35843 | 40316 ft | 431 kts | 262° |
| 2026-05-04 22:48 | 61.74169 | -43.48291 | 40317 ft | 431 kts | 262° |
| 2026-05-04 22:49 | 61.73071 | -43.60741 | 40279 ft | 431 kts | 262° |
| 2026-05-04 22:49 | 61.71961 | -43.73203 | 40216 ft | 431 kts | 262° |
| 2026-05-04 22:50 | 61.70842 | -43.85638 | 40216 ft | 431 kts | 262° |
| 2026-05-04 22:50 | 61.69715 | -43.98066 | 40183 ft | 431 kts | 261° |
| 2026-05-04 22:51 | 61.68571 | -44.10493 | 40193 ft | 432 kts | 261° |
| 2026-05-04 22:51 | 61.67418 | -44.22905 | 40179 ft | 431 kts | 261° |
| 2026-05-04 22:52 | 61.66263 | -44.35187 | 40178 ft | 431 kts | 261° |
| 2026-05-04 22:52 | 61.65080 | -44.47643 | 40176 ft | 431 kts | 261° |
| 2026-05-04 22:53 | 61.63905 | -44.59907 | 40175 ft | 431 kts | 260° |
| 2026-05-04 22:53 | 61.62699 | -44.72352 | 40164 ft | 431 kts | 260° |
| 2026-05-04 22:54 | 61.61489 | -44.84774 | 40172 ft | 431 kts | 259° |
| 2026-05-04 22:54 | 61.60266 | -44.97126 | 40178 ft | 431 kts | 259° |
| 2026-05-04 22:55 | 61.59042 | -45.09387 | 40178 ft | 431 kts | 259° |
| 2026-05-04 22:55 | 61.57799 | -45.21715 | 40185 ft | 431 kts | 259° |
| 2026-05-04 22:56 | 61.56546 | -45.34026 | 40186 ft | 431 kts | 259° |
| 2026-05-04 22:56 | 61.55281 | -45.46339 | 40192 ft | 431 kts | 259° |
| 2026-05-04 22:57 | 61.54011 | -45.58641 | 40175 ft | 432 kts | 258° |
| 2026-05-04 22:57 | 61.52720 | -45.70967 | 40180 ft | 432 kts | 258° |
| 2026-05-04 22:58 | 61.51416 | -45.83278 | 40178 ft | 432 kts | 258° |
| 2026-05-04 22:58 | 61.50103 | -45.95584 | 40175 ft | 432 kts | 258° |
| 2026-05-04 22:59 | 61.48779 | -46.07874 | 40175 ft | 432 kts | 258° |
| 2026-05-04 22:59 | 61.47443 | -46.20165 | 40178 ft | 432 kts | 258° |
| 2026-05-04 23:00 | 61.46102 | -46.32396 | 40176 ft | 432 kts | 258° |
| 2026-05-04 23:00 | 61.44744 | -46.44703 | 40180 ft | 435 kts | 257° |
| 2026-05-04 23:01 | 61.43363 | -46.57056 | 40182 ft | 435 kts | 257° |
| 2026-05-04 23:01 | 61.42006 | -46.69102 | 40181 ft | 436 kts | 257° |
| 2026-05-04 23:02 | 61.40605 | -46.81442 | 40183 ft | 436 kts | 257° |
| 2026-05-04 23:02 | 61.39201 | -46.93684 | 40178 ft | 436 kts | 257° |
| 2026-05-04 23:03 | 61.37778 | -47.05981 | 40174 ft | 436 kts | 257° |
| 2026-05-04 23:03 | 61.36344 | -47.18290 | 40161 ft | 437 kts | 256° |
| 2026-05-04 23:04 | 61.34893 | -47.30618 | 40157 ft | 438 kts | 256° |
| 2026-05-04 23:04 | 61.33427 | -47.42963 | 40159 ft | 438 kts | 256° |
| 2026-05-04 23:05 | 61.31953 | -47.55276 | 40163 ft | 438 kts | 256° |
| 2026-05-04 23:05 | 61.30465 | -47.67603 | 40162 ft | 438 kts | 256° |
| 2026-05-04 23:06 | 61.28969 | -47.79891 | 40129 ft | 438 kts | 256° |
| 2026-05-04 23:06 | 61.27458 | -47.92201 | 40129 ft | 438 kts | 256° |
| 2026-05-04 23:07 | 61.25940 | -48.04473 | 40143 ft | 438 kts | 256° |
| 2026-05-04 23:07 | 61.24409 | -48.16741 | 40125 ft | 438 kts | 255° |
| 2026-05-04 23:08 | 61.22869 | -48.28981 | 40121 ft | 438 kts | 255° |
| 2026-05-04 23:08 | 61.21317 | -48.41207 | 40106 ft | 438 kts | 255° |
| 2026-05-04 23:09 | 61.19752 | -48.53447 | 40103 ft | 438 kts | 255° |
| 2026-05-04 23:09 | 61.18178 | -48.65653 | 40106 ft | 437 kts | 255° |
| 2026-05-04 23:10 | 61.16595 | -48.77853 | 40092 ft | 439 kts | 255° |
| 2026-05-04 23:10 | 61.14997 | -48.90044 | 40089 ft | 439 kts | 255° |
| 2026-05-04 23:11 | 61.13384 | -49.02258 | 40085 ft | 439 kts | 255° |
| 2026-05-04 23:11 | 61.11760 | -49.14459 | 40084 ft | 439 kts | 254° |
| 2026-05-04 23:12 | 61.10137 | -49.26563 | 40085 ft | 439 kts | 254° |
| 2026-05-04 23:12 | 61.08491 | -49.38740 | 40077 ft | 439 kts | 254° |
| 2026-05-04 23:13 | 61.06840 | -49.50885 | 40070 ft | 438 kts | 253° |
| 2026-05-04 23:13 | 61.05177 | -49.62994 | 40061 ft | 438 kts | 253° |
| 2026-05-04 23:14 | 61.03501 | -49.75077 | 40060 ft | 437 kts | 253° |
| 2026-05-04 23:14 | 61.01812 | -49.87162 | 40059 ft | 437 kts | 253° |
| 2026-05-04 23:15 | 61.00114 | -49.99232 | 40046 ft | 438 kts | 253° |
| 2026-05-04 23:15 | 60.98313 | -50.11227 | 40047 ft | 438 kts | 251° |
| 2026-05-04 23:16 | 60.96453 | -50.23154 | 40031 ft | 437 kts | 251° |
| 2026-05-04 23:16 | 60.94584 | -50.35108 | 40034 ft | 437 kts | 251° |
| 2026-05-04 23:17 | 60.92705 | -50.47008 | 40032 ft | 437 kts | 251° |
| 2026-05-04 23:17 | 60.90821 | -50.58871 | 40024 ft | 438 kts | 251° |
| 2026-05-04 23:18 | 60.88923 | -50.70767 | 40022 ft | 437 kts | 250° |
| 2026-05-04 23:18 | 60.87016 | -50.82633 | 40010 ft | 437 kts | 250° |
| 2026-05-04 23:19 | 60.85096 | -50.94491 | 40004 ft | 438 kts | 250° |
| 2026-05-04 23:19 | 60.83166 | -51.06367 | 40002 ft | 441 kts | 250° |
| 2026-05-04 23:20 | 60.81209 | -51.18305 | 39989 ft | 441 kts | 249° |
| 2026-05-04 23:20 | 60.79253 | -51.30148 | 39988 ft | 440 kts | 249° |
| 2026-05-04 23:21 | 60.77257 | -51.42152 | 39973 ft | 442 kts | 249° |
| 2026-05-04 23:21 | 60.75264 | -51.54069 | 39974 ft | 443 kts | 249° |
| 2026-05-04 23:22 | 60.73265 | -51.65948 | 39972 ft | 442 kts | 249° |
| 2026-05-04 23:22 | 60.71256 | -51.77842 | 39961 ft | 443 kts | 248° |
| 2026-05-04 23:23 | 60.69223 | -51.89769 | 39967 ft | 445 kts | 248° |
| 2026-05-04 23:23 | 60.67194 | -52.01581 | 39946 ft | 446 kts | 248° |
| 2026-05-04 23:24 | 60.65132 | -52.13517 | 39943 ft | 446 kts | 248° |
| 2026-05-04 23:24 | 60.63062 | -52.25417 | 39940 ft | 446 kts | 248° |
| 2026-05-04 23:25 | 60.60983 | -52.37313 | 39926 ft | 445 kts | 248° |
| 2026-05-04 23:25 | 60.58890 | -52.49232 | 39929 ft | 447 kts | 247° |
| 2026-05-04 23:26 | 60.56771 | -52.61175 | 39912 ft | 449 kts | 247° |
| 2026-05-04 23:26 | 60.54638 | -52.73123 | 39913 ft | 449 kts | 247° |
| 2026-05-04 23:27 | 60.52497 | -52.85051 | 39909 ft | 449 kts | 247° |
| 2026-05-04 23:27 | 60.50349 | -52.96948 | 39893 ft | 449 kts | 247° |
| 2026-05-04 23:28 | 60.48187 | -53.08846 | 39895 ft | 448 kts | 247° |
| 2026-05-04 23:28 | 60.46016 | -53.20729 | 39888 ft | 450 kts | 246° |
| 2026-05-04 23:29 | 60.43825 | -53.32637 | 39884 ft | 452 kts | 246° |
| 2026-05-04 23:29 | 60.41618 | -53.44559 | 39869 ft | 452 kts | 246° |
| 2026-05-04 23:30 | 60.39418 | -53.56372 | 39870 ft | 451 kts | 246° |
| 2026-05-04 23:30 | 60.37197 | -53.68239 | 39867 ft | 451 kts | 246° |
| 2026-05-04 23:31 | 60.34968 | -53.80066 | 39848 ft | 451 kts | 246° |
| 2026-05-04 23:31 | 60.32718 | -53.91942 | 39856 ft | 452 kts | 245° |
| 2026-05-04 23:32 | 60.30448 | -54.03812 | 39839 ft | 454 kts | 245° |
| 2026-05-04 23:32 | 60.28169 | -54.15687 | 39837 ft | 454 kts | 245° |
| 2026-05-04 23:33 | 60.25883 | -54.27520 | 39833 ft | 454 kts | 245° |
| 2026-05-04 23:33 | 60.23579 | -54.39374 | 39826 ft | 455 kts | 245° |
| 2026-05-04 23:34 | 60.21263 | -54.51230 | 39821 ft | 455 kts | 245° |
| 2026-05-04 23:34 | 60.18938 | -54.63070 | 39820 ft | 456 kts | 245° |
| 2026-05-04 23:35 | 60.16595 | -54.74920 | 39810 ft | 457 kts | 244° |
| 2026-05-04 23:35 | 60.14231 | -54.86790 | 39808 ft | 458 kts | 244° |
| 2026-05-04 23:36 | 60.12262 | -54.96631 | 39804 ft | 458 kts | 244° |
| 2026-05-04 23:36 | 60.09886 | -55.08440 | 39802 ft | 458 kts | 245° |
| 2026-05-04 23:37 | 60.07495 | -55.20263 | 39793 ft | 458 kts | 244° |
| 2026-05-04 23:37 | 60.05087 | -55.32091 | 39792 ft | 458 kts | 244° |
| 2026-05-04 23:38 | 60.02676 | -55.43876 | 39779 ft | 458 kts | 244° |
| 2026-05-04 23:38 | 60.00258 | -55.55608 | 39793 ft | 458 kts | 244° |
| 2026-05-04 23:39 | 59.97833 | -55.67306 | 39788 ft | 458 kts | 244° |
| 2026-05-04 23:39 | 59.95393 | -55.79023 | 39767 ft | 458 kts | 244° |
| 2026-05-04 23:40 | 59.92940 | -55.90739 | 39777 ft | 459 kts | 243° |
| 2026-05-04 23:40 | 59.90484 | -56.02402 | 39756 ft | 460 kts | 244° |
| 2026-05-04 23:41 | 59.88001 | -56.14131 | 39751 ft | 462 kts | 243° |
| 2026-05-04 23:41 | 59.85500 | -56.25865 | 39744 ft | 462 kts | 243° |
| 2026-05-04 23:42 | 59.82991 | -56.37581 | 39740 ft | 462 kts | 243° |
| 2026-05-04 23:42 | 59.80466 | -56.49302 | 39742 ft | 462 kts | 243° |
| 2026-05-04 23:43 | 59.77952 | -56.60899 | 39727 ft | 462 kts | 243° |
| 2026-05-04 23:43 | 59.75404 | -56.72590 | 39756 ft | 465 kts | 243° |
| 2026-05-04 23:44 | 59.72820 | -56.84367 | 39722 ft | 465 kts | 243° |
| 2026-05-04 23:44 | 59.70242 | -56.96070 | 39719 ft | 465 kts | 243° |
| 2026-05-04 23:45 | 59.67654 | -57.07748 | 39701 ft | 465 kts | 243° |
| 2026-05-04 23:45 | 59.65057 | -57.19398 | 39703 ft | 465 kts | 242° |
| 2026-05-04 23:46 | 59.62442 | -57.31067 | 39703 ft | 465 kts | 242° |
| 2026-05-04 23:46 | 59.59816 | -57.42717 | 39700 ft | 469 kts | 242° |
| 2026-05-04 23:47 | 59.57158 | -57.54438 | 39694 ft | 470 kts | 242° |
| 2026-05-04 23:47 | 59.54480 | -57.66182 | 39689 ft | 470 kts | 242° |
| 2026-05-04 23:48 | 59.51797 | -57.77880 | 39692 ft | 470 kts | 242° |
| 2026-05-04 23:48 | 59.49104 | -57.89545 | 39687 ft | 469 kts | 242° |
| 2026-05-04 23:49 | 59.46412 | -58.01140 | 39685 ft | 470 kts | 241° |
| 2026-05-04 23:49 | 59.43574 | -58.12714 | 39671 ft | 471 kts | 240° |
| 2026-05-04 23:50 | 59.40720 | -58.24108 | 39667 ft | 472 kts | 240° |
| 2026-05-04 23:50 | 59.37845 | -58.35548 | 39666 ft | 472 kts | 239° |
| 2026-05-04 23:51 | 59.34950 | -58.47022 | 39659 ft | 472 kts | 239° |
| 2026-05-04 23:51 | 59.32043 | -58.58490 | 39657 ft | 472 kts | 239° |
| 2026-05-04 23:52 | 59.29121 | -58.69963 | 39661 ft | 473 kts | 239° |
| 2026-05-04 23:52 | 59.26181 | -58.81444 | 39650 ft | 473 kts | 239° |
| 2026-05-04 23:53 | 59.23243 | -58.92856 | 39631 ft | 473 kts | 239° |
| 2026-05-04 23:53 | 59.20295 | -59.04252 | 39651 ft | 473 kts | 239° |
| 2026-05-04 23:54 | 59.17340 | -59.15616 | 39629 ft | 473 kts | 239° |
| 2026-05-04 23:54 | 59.14373 | -59.26971 | 39647 ft | 473 kts | 238° |
| 2026-05-04 23:55 | 59.11377 | -59.38376 | 39626 ft | 475 kts | 238° |
| 2026-05-04 23:56 | 59.06862 | -59.55454 | 39627 ft | 475 kts | 238° |
| 2026-05-04 23:56 | 59.03832 | -59.66843 | 39619 ft | 475 kts | 238° |
| 2026-05-04 23:57 | 59.00795 | -59.78201 | 39620 ft | 475 kts | 238° |
| 2026-05-04 23:57 | 58.97742 | -59.89562 | 39631 ft | 475 kts | 238° |
| 2026-05-04 23:58 | 58.94679 | -60.00902 | 39624 ft | 476 kts | 238° |
| 2026-05-04 23:58 | 58.91591 | -60.12278 | 39614 ft | 476 kts | 238° |
| 2026-05-04 23:59 | 58.88502 | -60.23605 | 39617 ft | 475 kts | 238° |
| 2026-05-04 23:59 | 58.85419 | -60.34850 | 39611 ft | 474 kts | 238° |
| 2026-05-05 00:00 | 58.82320 | -60.46098 | 39615 ft | 474 kts | 237° |
| 2026-05-05 00:00 | 58.79228 | -60.57262 | 39623 ft | 476 kts | 237° |
| 2026-05-05 00:01 | 58.76097 | -60.68515 | 39615 ft | 477 kts | 237° |
| 2026-05-05 00:01 | 58.72947 | -60.79779 | 39612 ft | 477 kts | 237° |
| 2026-05-05 00:02 | 58.69791 | -60.91010 | 39622 ft | 477 kts | 237° |
| 2026-05-05 00:02 | 58.66625 | -61.02223 | 39622 ft | 477 kts | 237° |
| 2026-05-05 00:03 | 58.63450 | -61.13413 | 39632 ft | 478 kts | 237° |
| 2026-05-05 00:03 | 58.60250 | -61.24631 | 39610 ft | 479 kts | 237° |
| 2026-05-05 00:04 | 58.57032 | -61.35878 | 39644 ft | 480 kts | 236° |
| 2026-05-05 00:04 | 58.53806 | -61.47070 | 39642 ft | 480 kts | 236° |
| 2026-05-05 00:05 | 58.50567 | -61.58257 | 39641 ft | 480 kts | 236° |
| 2026-05-05 00:05 | 58.47323 | -61.69406 | 39644 ft | 479 kts | 236° |
| 2026-05-05 00:06 | 58.44068 | -61.80550 | 39650 ft | 479 kts | 236° |
| 2026-05-05 00:06 | 58.40807 | -61.91661 | 39651 ft | 479 kts | 236° |
| 2026-05-05 00:07 | 58.37537 | -62.02742 | 39654 ft | 479 kts | 236° |
| 2026-05-05 00:07 | 58.34261 | -62.13795 | 39657 ft | 479 kts | 236° |
| 2026-05-05 00:08 | 58.30970 | -62.24842 | 39667 ft | 479 kts | 236° |
| 2026-05-05 00:08 | 58.27689 | -62.35799 | 39674 ft | 480 kts | 236° |
| 2026-05-05 00:09 | 58.24367 | -62.46829 | 39676 ft | 480 kts | 236° |
| 2026-05-05 00:09 | 58.21046 | -62.57825 | 39666 ft | 479 kts | 236° |
| 2026-05-05 00:10 | 58.17719 | -62.68790 | 39668 ft | 479 kts | 236° |